Observation data for Wall on 04/25/2019      Previous  Date  Next       Current Mesonet Observations  Soil Data  Daily Summary Page  Observations in Plain Language
KWA1 250500Z 20005KT 14/14 A2992 RMK A01 T01390136  RH  098%=      5-min Rain = 0
KWA1 250501Z 21005KT 14/14 A2992 RMK A01 T01390136  RH  098%=      5-min Rain = 0
KWA1 250502Z 21006KT 14/14 A2992 RMK A01 T01390136  RH  098%=      5-min Rain = 0
KWA1 250503Z 20006KT 14/14 A2992 RMK A01 T01390136  RH  098%=      5-min Rain = 0
KWA1 250504Z 21006KT 14/14 A2992 RMK A01 T01390136  RH  098%=      5-min Rain = 0
KWA1 250505Z 21005KT 14/14 A2992 RMK A01 T01380135  RH  098%=      5-min Rain = 0
KWA1 250506Z 21006KT 14/14 A2992 RMK A01 T01380135  RH  098%=      5-min Rain = 0
KWA1 250507Z 21006KT 14/14 A2992 RMK A01 T01380135  RH  098%=      5-min Rain = 0
KWA1 250508Z 21006KT 14/14 A2992 RMK A01 T01380135  RH  098%=      5-min Rain = 0
KWA1 250509Z 22005KT 14/14 A2992 RMK A01 T01380135  RH  098%=      5-min Rain = 0
KWA1 250510Z 22006KT 14/14 A2992 RMK A01 T01380135  RH  098%=      5-min Rain = 0
KWA1 250511Z 22006KT 14/14 A2992 RMK A01 T01380135  RH  098%=      5-min Rain = 0
KWA1 250512Z 23006KT 14/13 A2992 RMK A01 T01380134  RH  098%=      5-min Rain = 0
KWA1 250513Z 23006KT 14/13 A2992 RMK A01 T01370134  RH  098%=      5-min Rain = 0
KWA1 250514Z 23005KT 14/14 A2992 RMK A01 T01380135  RH  098%=      5-min Rain = 0
KWA1 250515Z 23005KT 14/14 A2992 RMK A01 T01380135  RH  098%=      5-min Rain = 0
KWA1 250516Z 23005KT 14/14 A2992 RMK A01 T01380135  RH  098%=      5-min Rain = 0
KWA1 250517Z 23006KT 14/14 A2992 RMK A01 T01380135  RH  098%=      5-min Rain = 0
KWA1 250518Z 23006KT 14/14 A2992 RMK A01 T01380135  RH  098%=      5-min Rain = 0
KWA1 250519Z 23006KT 14/14 A2992 RMK A01 T01380135  RH  098%=      5-min Rain = 0
KWA1 250520Z 23006KT 14/14 A2992 RMK A01 T01380135  RH  098%=      5-min Rain = 0
KWA1 250521Z 23006KT 14/14 A2992 RMK A01 T01380135  RH  098%=      5-min Rain = 0
KWA1 250522Z 23006KT 14/14 A2992 RMK A01 T01380135  RH  098%=      5-min Rain = 0
KWA1 250523Z 23006KT 14/14 A2992 RMK A01 T01380135  RH  098%=      5-min Rain = 0
KWA1 250524Z 23005KT 14/13 A2992 RMK A01 T01380134  RH  098%=      5-min Rain = 0
KWA1 250525Z 23005KT 14/13 A2992 RMK A01 T01380134  RH  098%=      5-min Rain = 0
KWA1 250526Z 23005KT 14/13 A2992 RMK A01 T01380134  RH  098%=      5-min Rain = 0
KWA1 250527Z 23005KT 14/13 A2992 RMK A01 T01380134  RH  098%=      5-min Rain = 0
KWA1 250528Z 23005KT 14/13 A2992 RMK A01 T01370134  RH  098%=      5-min Rain = 0
KWA1 250529Z 23004KT 14/13 A2992 RMK A01 T01370134  RH  098%=      5-min Rain = 0
KWA1 250530Z 22004KT 14/13 A2992 RMK A01 T01370134  RH  098%=      5-min Rain = 0
KWA1 250531Z 22003KT 14/13 A2992 RMK A01 T01370134  RH  098%=      5-min Rain = 0
KWA1 250532Z 22003KT 14/13 A2992 RMK A01 T01370133  RH  098%=      5-min Rain = 0
KWA1 250533Z 22003KT 14/13 A2992 RMK A01 T01370133  RH  098%=      5-min Rain = 0
KWA1 250534Z 22003KT 14/13 A2992 RMK A01 T01370133  RH  098%=      5-min Rain = 0
KWA1 250535Z 22003KT 14/13 A2992 RMK A01 T01370133  RH  098%=      5-min Rain = 0
KWA1 250536Z 23003KT 14/13 A2992 RMK A01 T01360133  RH  098%=      5-min Rain = 0
KWA1 250537Z 24002KT 14/13 A2992 RMK A01 T01370133  RH  098%=      5-min Rain = 0
KWA1 250538Z 24002KT 14/13 A2992 RMK A01 T01370133  RH  098%=      5-min Rain = 0
KWA1 250539Z 24002KT 14/13 A2992 RMK A01 T01360133  RH  098%=      5-min Rain = 0
KWA1 250540Z 23002KT 14/13 A2992 RMK A01 T01360133  RH  098%=      5-min Rain = 0
KWA1 250541Z 22002KT 14/13 A2992 RMK A01 T01360133  RH  098%=      5-min Rain = 0
KWA1 250542Z 22002KT 14/13 A2992 RMK A01 T01360133  RH  098%=      5-min Rain = 0
KWA1 250543Z 21002KT 14/13 A2992 RMK A01 T01360133  RH  098%=      5-min Rain = 0
KWA1 250544Z 21002KT 14/13 A2992 RMK A01 T01360133  RH  098%=      5-min Rain = 0
KWA1 250545Z 20002KT 14/13 A2992 RMK A01 T01360133  RH  098%=      5-min Rain = 0
KWA1 250546Z 21002KT 14/13 A2992 RMK A01 T01360133  RH  098%=      5-min Rain = 0
KWA1 250547Z 21002KT 14/13 A2992 RMK A01 T01360133  RH  098%=      5-min Rain = 0
KWA1 250548Z 22002KT 14/13 A2992 RMK A01 T01360133  RH  098%=      5-min Rain = 0
KWA1 250549Z 21003KT 14/13 A2992 RMK A01 T01360133  RH  098%=      5-min Rain = 0
KWA1 250550Z 22003KT 14/13 A2992 RMK A01 T01360133  RH  098%=      5-min Rain = 0
KWA1 250551Z 22003KT 14/13 A2992 RMK A01 T01350132  RH  098%=      5-min Rain = 0
KWA1 250552Z 22003KT 14/13 A2992 RMK A01 T01350133  RH  098%=      5-min Rain = 0
KWA1 250553Z 22003KT 14/13 A2992 RMK A01 T01360133  RH  098%=      5-min Rain = 0
KWA1 250554Z 22003KT 14/13 A2992 RMK A01 T01350133  RH  098%=      5-min Rain = 0
KWA1 250555Z 21003KT 13/13 A2992 RMK A01 T01340132  RH  098%=      5-min Rain = 0
KWA1 250556Z 20003KT 13/13 A2992 RMK A01 T01340131  RH  098%=      5-min Rain = 0
KWA1 250557Z 20003KT 13/13 A2992 RMK A01 T01330129  RH  098%=      5-min Rain = 0
KWA1 250558Z 21003KT 13/13 A2992 RMK A01 T01320129  RH  098%=      5-min Rain = 0
KWA1 250559Z 21003KT 13/13 A2992 RMK A01 T01320129  RH  098%=      5-min Rain = 0
KWA1 250600Z 21003KT 13/13 A2992 RMK A01 T01320129  RH  098%=      5-min Rain = 0
KWA1 250601Z 21003KT 13/13 A2992 RMK A01 T01310129  RH  098%=      5-min Rain = 0
KWA1 250602Z 21003KT 13/13 A2992 RMK A01 T01310128  RH  098%=      5-min Rain = 0
KWA1 250603Z 21003KT 13/13 A2992 RMK A01 T01310129  RH  098%=      5-min Rain = 0
KWA1 250604Z 21003KT 13/13 A2992 RMK A01 T01310129  RH  098%=      5-min Rain = 0
KWA1 250605Z 22003KT 13/13 A2992 RMK A01 T01310128  RH  098%=      5-min Rain = 0
KWA1 250606Z 22003KT 13/13 A2992 RMK A01 T01310128  RH  098%=      5-min Rain = 0
KWA1 250607Z 22003KT 13/13 A2992 RMK A01 T01310128  RH  098%=      5-min Rain = 0
KWA1 250608Z 22004KT 13/13 A2992 RMK A01 T01310128  RH  098%=      5-min Rain = 0
KWA1 250609Z 22004KT 13/13 A2992 RMK A01 T01300128  RH  098%=      5-min Rain = 0
KWA1 250610Z 23004KT 13/13 A2992 RMK A01 T01300128  RH  098%=      5-min Rain = 0
KWA1 250611Z 23004KT 13/13 A2992 RMK A01 T01300128  RH  099%=      5-min Rain = 0
KWA1 250612Z 24004KT 13/13 A2992 RMK A01 T01300128  RH  099%=      5-min Rain = 0
KWA1 250613Z 24004KT 13/13 A2992 RMK A01 T01300128  RH  099%=      5-min Rain = 0
KWA1 250614Z 24004KT 13/13 A2992 RMK A01 T01300127  RH  099%=      5-min Rain = 0
KWA1 250615Z 24004KT 13/13 A2992 RMK A01 T01300128  RH  099%=      5-min Rain = 0
KWA1 250616Z 25004KT 13/13 A2992 RMK A01 T01300127  RH  099%=      5-min Rain = 0
KWA1 250617Z 25004KT 13/13 A2992 RMK A01 T01290127  RH  099%=      5-min Rain = 0
KWA1 250618Z 25004KT 13/13 A2991 RMK A01 T01290127  RH  099%=      5-min Rain = 0
KWA1 250619Z 25004KT 13/13 A2991 RMK A01 T01290127  RH  099%=      5-min Rain = 0
KWA1 250620Z 25004KT 13/13 A2991 RMK A01 T01280126  RH  099%=      5-min Rain = 0
KWA1 250621Z 25005KT 13/13 A2991 RMK A01 T01280126  RH  099%=      5-min Rain = 0
KWA1 250622Z 26005KT 13/13 A2991 RMK A01 T01280126  RH  099%=      5-min Rain = 0
KWA1 250623Z 25005KT 13/13 A2991 RMK A01 T01290127  RH  099%=      5-min Rain = 0
KWA1 250624Z 26005KT 13/13 A2991 RMK A01 T01290128  RH  099%=      5-min Rain = 0
KWA1 250625Z 25005KT 13/13 A2991 RMK A01 T01290128  RH  099%=      5-min Rain = 0
KWA1 250626Z 25005KT 13/13 A2991 RMK A01 T01300128  RH  099%=      5-min Rain = 0
KWA1 250627Z 25004KT 13/13 A2991 RMK A01 T01290127  RH  099%=      5-min Rain = 0
KWA1 250628Z 25004KT 13/13 A2991 RMK A01 T01290128  RH  099%=      5-min Rain = 0
KWA1 250629Z 25005KT 13/13 A2991 RMK A01 T01290127  RH  099%=      5-min Rain = 0
KWA1 250630Z 24005KT 13/13 A2991 RMK A01 T01290127  RH  099%=      5-min Rain = 0
KWA1 250631Z 24004KT 13/13 A2991 RMK A01 T01280126  RH  099%=      5-min Rain = 0
KWA1 250632Z 22004KT 13/13 A2991 RMK A01 T01270125  RH  099%=      5-min Rain = 0
KWA1 250633Z 20004KT 13/12 A2991 RMK A01 T01260124  RH  098%=      5-min Rain = 0
KWA1 250634Z 20004KT 13/12 A2991 RMK A01 T01250123  RH  098%=      5-min Rain = 0
KWA1 250635Z 20004KT 13/12 A2991 RMK A01 T01250123  RH  098%=      5-min Rain = 0
KWA1 250636Z 21004KT 13/12 A2991 RMK A01 T01250123  RH  098%=      5-min Rain = 0
KWA1 250637Z 20004KT 13/12 A2991 RMK A01 T01250123  RH  099%=      5-min Rain = 0
KWA1 250638Z 21005KT 13/12 A2991 RMK A01 T01250123  RH  099%=      5-min Rain = 0
KWA1 250639Z 21005KT 12/12 A2991 RMK A01 T01240122  RH  099%=      5-min Rain = 0
KWA1 250640Z 22005KT 12/12 A2991 RMK A01 T01240123  RH  099%=      5-min Rain = 0
KWA1 250641Z 22005KT 13/12 A2991 RMK A01 T01250123  RH  099%=      5-min Rain = 0
KWA1 250642Z 22005KT 13/12 A2991 RMK A01 T01250123  RH  099%=      5-min Rain = 0
KWA1 250643Z 22004KT 13/12 A2991 RMK A01 T01250124  RH  099%=      5-min Rain = 0
KWA1 250644Z 23004KT 13/12 A2991 RMK A01 T01250124  RH  099%=      5-min Rain = 0
KWA1 250645Z 23004KT 13/12 A2991 RMK A01 T01250123  RH  099%=      5-min Rain = 0
KWA1 250646Z 23004KT 13/12 A2991 RMK A01 T01250123  RH  099%=      5-min Rain = 0
KWA1 250647Z 24004KT 13/12 A2991 RMK A01 T01250123  RH  099%=      5-min Rain = 0
KWA1 250648Z 24004KT 13/12 A2991 RMK A01 T01250123  RH  099%=      5-min Rain = 0
KWA1 250649Z 24004KT 13/12 A2991 RMK A01 T01250123  RH  099%=      5-min Rain = 0
KWA1 250650Z 24004KT 13/12 A2991 RMK A01 T01250124  RH  099%=      5-min Rain = 0
KWA1 250651Z 24004KT 13/12 A2991 RMK A01 T01250123  RH  099%=      5-min Rain = 0
KWA1 250652Z 24004KT 13/12 A2991 RMK A01 T01250123  RH  099%=      5-min Rain = 0
KWA1 250653Z 25004KT 12/12 A2991 RMK A01 T01240123  RH  099%=      5-min Rain = 0
KWA1 250654Z 25005KT 12/12 A2991 RMK A01 T01240122  RH  099%=      5-min Rain = 0
KWA1 250655Z 25005KT 12/12 A2991 RMK A01 T01230121  RH  099%=      5-min Rain = 0
KWA1 250656Z 25005KT 12/12 A2991 RMK A01 T01230121  RH  099%=      5-min Rain = 0
KWA1 250657Z 25005KT 12/12 A299 RMK A01 T01230121  RH  099%=      5-min Rain = 0
KWA1 250658Z 25005KT 12/12 A299 RMK A01 T01230121  RH  099%=      5-min Rain = 0
KWA1 250659Z 24005KT 12/12 A299 RMK A01 T01220120  RH  099%=      5-min Rain = 0
KWA1 250700Z 24005KT 12/12 A299 RMK A01 T01210120  RH  099%=      5-min Rain = 0
KWA1 250701Z 24005KT 12/12 A299 RMK A01 T01210119  RH  099%=      5-min Rain = 0
KWA1 250702Z 24005KT 12/12 A299 RMK A01 T01210119  RH  099%=      5-min Rain = 0
KWA1 250703Z 25005KT 12/12 A299 RMK A01 T01210119  RH  099%=      5-min Rain = 0
KWA1 250704Z 26005KT 12/12 A299 RMK A01 T01210119  RH  099%=      5-min Rain = 0
KWA1 250705Z 27004KT 12/12 A299 RMK A01 T01210119  RH  099%=      5-min Rain = 0
KWA1 250706Z 27004KT 12/12 A299 RMK A01 T01210119  RH  099%=      5-min Rain = 0
KWA1 250707Z 28004KT 12/12 A299 RMK A01 T01210120  RH  099%=      5-min Rain = 0
KWA1 250708Z 28005KT 12/12 A299 RMK A01 T01230122  RH  099%=      5-min Rain = 0
KWA1 250709Z 28005KT 12/12 A299 RMK A01 T01230122  RH  099%=      5-min Rain = 0
KWA1 250710Z 27005KT 12/12 A299 RMK A01 T01240122  RH  099%=      5-min Rain = 0
KWA1 250711Z 27005KT 12/12 A299 RMK A01 T01230122  RH  099%=      5-min Rain = 0
KWA1 250712Z 26006KT 12/12 A299 RMK A01 T01230122  RH  099%=      5-min Rain = 0
KWA1 250713Z 26007KT 12/12 A299 RMK A01 T01230122  RH  099%=      5-min Rain = 0
KWA1 250714Z 26007KT 12/12 A299 RMK A01 T01230121  RH  099%=      5-min Rain = 0
KWA1 250715Z 25007KT 12/12 A299 RMK A01 T01220121  RH  099%=      5-min Rain = 0
KWA1 250716Z 25008KT 12/12 A299 RMK A01 T01220120  RH  099%=      5-min Rain = 0
KWA1 250717Z 25008KT 12/12 A299 RMK A01 T01220120  RH  099%=      5-min Rain = 0
KWA1 250718Z 25008KT 12/12 A299 RMK A01 T01220120  RH  099%=      5-min Rain = 0
KWA1 250719Z 25008KT 12/12 A299 RMK A01 T01220121  RH  099%=      5-min Rain = 0
KWA1 250720Z 25008KT 12/12 A299 RMK A01 T01220120  RH  099%=      5-min Rain = 0
KWA1 250721Z 25008KT 12/12 A299 RMK A01 T01220120  RH  099%=      5-min Rain = 0
KWA1 250722Z 25008KT 12/12 A299 RMK A01 T01220120  RH  099%=      5-min Rain = 0
KWA1 250723Z 25008KT 12/12 A299 RMK A01 T01220120  RH  099%=      5-min Rain = 0
KWA1 250724Z 25008KT 12/12 A299 RMK A01 T01220121  RH  099%=      5-min Rain = 0
KWA1 250725Z 25007KT 12/12 A299 RMK A01 T01220121  RH  099%=      5-min Rain = 0
KWA1 250726Z 25007KT 12/12 A299 RMK A01 T01220121  RH  099%=      5-min Rain = 0
KWA1 250727Z 25007KT 12/12 A299 RMK A01 T01220120  RH  099%=      5-min Rain = 0
KWA1 250728Z 25007KT 12/12 A299 RMK A01 T01220120  RH  099%=      5-min Rain = 0
KWA1 250729Z 24007KT 12/12 A299 RMK A01 T01220120  RH  099%=      5-min Rain = 0
KWA1 250730Z 24008KT 12/12 A299 RMK A01 T01220120  RH  099%=      5-min Rain = 0
KWA1 250731Z 25008KT 12/12 A299 RMK A01 T01220120  RH  099%=      5-min Rain = 0
KWA1 250732Z 25007KT 12/12 A299 RMK A01 T01230121  RH  099%=      5-min Rain = 0
KWA1 250733Z 25007KT 12/12 A299 RMK A01 T01230120  RH  098%=      5-min Rain = 0
KWA1 250734Z 25007KT 12/12 A299 RMK A01 T01230120  RH  098%=      5-min Rain = 0
KWA1 250735Z 25007KT 12/12 A299 RMK A01 T01220120  RH  098%=      5-min Rain = 0
KWA1 250736Z 25008KT 12/12 A299 RMK A01 T01220120  RH  098%=      5-min Rain = 0
KWA1 250737Z 25008KT 12/12 A299 RMK A01 T01220120  RH  098%=      5-min Rain = 0
KWA1 250738Z 25007KT 12/12 A2989 RMK A01 T01220120  RH  098%=      5-min Rain = 0
KWA1 250739Z 25007KT 12/12 A2989 RMK A01 T01230120  RH  098%=      5-min Rain = 0
KWA1 250740Z 25007KT 12/12 A299 RMK A01 T01220120  RH  098%=      5-min Rain = 0
KWA1 250741Z 25007KT 12/12 A299 RMK A01 T01220120  RH  098%=      5-min Rain = 0
KWA1 250742Z 25006KT 12/12 A2989 RMK A01 T01220119  RH  098%=      5-min Rain = 0
KWA1 250743Z 25006KT 12/12 A2989 RMK A01 T01220119  RH  098%=      5-min Rain = 0
KWA1 250744Z 25007KT 12/12 A2989 RMK A01 T01210118  RH  098%=      5-min Rain = 0
KWA1 250745Z 24006KT 12/12 A2989 RMK A01 T01220119  RH  098%=      5-min Rain = 0
KWA1 250746Z 24006KT 12/12 A2989 RMK A01 T01210119  RH  098%=      5-min Rain = 0
KWA1 250747Z 24006KT 12/12 A2989 RMK A01 T01210119  RH  098%=      5-min Rain = 0
KWA1 250748Z 24006KT 12/12 A2989 RMK A01 T01210118  RH  098%=      5-min Rain = 0
KWA1 250749Z 24006KT 12/12 A2989 RMK A01 T01210118  RH  098%=      5-min Rain = 0
KWA1 250750Z 25006KT 12/12 A2989 RMK A01 T01210118  RH  098%=      5-min Rain = 0
KWA1 250751Z 25006KT 12/12 A2989 RMK A01 T01200117  RH  098%=      5-min Rain = 0
KWA1 250752Z 25006KT 12/12 A2989 RMK A01 T01200117  RH  098%=      5-min Rain = 0
KWA1 250753Z 25006KT 12/12 A2989 RMK A01 T01200117  RH  098%=      5-min Rain = 0
KWA1 250754Z 25007KT 12/12 A2989 RMK A01 T01200117  RH  098%=      5-min Rain = 0
KWA1 250755Z 25006KT 12/12 A2989 RMK A01 T01200118  RH  098%=      5-min Rain = 0
KWA1 250756Z 25007KT 12/12 A2989 RMK A01 T01200118  RH  098%=      5-min Rain = 0
KWA1 250757Z 25007KT 12/12 A2989 RMK A01 T01200117  RH  098%=      5-min Rain = 0
KWA1 250758Z 25007KT 12/12 A2989 RMK A01 T01200118  RH  098%=      5-min Rain = 0
KWA1 250759Z 25007KT 12/12 A2989 RMK A01 T01200117  RH  098%=      5-min Rain = 0
KWA1 250800Z 25007KT 12/12 A2989 RMK A01 T01200117  RH  098%=      5-min Rain = 0
KWA1 250801Z 25007KT 12/12 A2989 RMK A01 T01200117  RH  098%=      5-min Rain = 0
KWA1 250802Z 25007KT 12/12 A2989 RMK A01 T01200118  RH  098%=      5-min Rain = 0
KWA1 250803Z 25008KT 12/12 A2989 RMK A01 T01200117  RH  098%=      5-min Rain = 0
KWA1 250804Z 25008KT 12/12 A2989 RMK A01 T01200117  RH  098%=      5-min Rain = 0
KWA1 250805Z 25008KT 12/12 A2989 RMK A01 T01190117  RH  098%=      5-min Rain = 0
KWA1 250806Z 26008KT 12/12 A2989 RMK A01 T01190117  RH  098%=      5-min Rain = 0
KWA1 250807Z 25008KT 12/12 A2989 RMK A01 T01190117  RH  098%=      5-min Rain = 0
KWA1 250808Z 26008KT 12/12 A2988 RMK A01 T01190116  RH  098%=      5-min Rain = 0
KWA1 250809Z 26007KT 12/12 A2988 RMK A01 T01180116  RH  098%=      5-min Rain = 0
KWA1 250810Z 26007KT 12/12 A2988 RMK A01 T01180115  RH  098%=      5-min Rain = 0
KWA1 250811Z 26007KT 12/12 A2988 RMK A01 T01180115  RH  098%=      5-min Rain = 0
KWA1 250812Z 26008KT 12/12 A2988 RMK A01 T01180115  RH  098%=      5-min Rain = 0
KWA1 250813Z 26007KT 12/12 A2988 RMK A01 T01170115  RH  098%=      5-min Rain = 0
KWA1 250814Z 26008KT 12/12 A2988 RMK A01 T01180115  RH  098%=      5-min Rain = 0
KWA1 250815Z 26008KT 12/12 A2988 RMK A01 T01170115  RH  098%=      5-min Rain = 0
KWA1 250816Z 26008KT 12/11 A2988 RMK A01 T01170114  RH  098%=      5-min Rain = 0
KWA1 250817Z 26008KT 12/12 A2988 RMK A01 T01170115  RH  098%=      5-min Rain = 0
KWA1 250818Z 26008KT 12/11 A2988 RMK A01 T01170114  RH  098%=      5-min Rain = 0
KWA1 250819Z 26008KT 12/11 A2988 RMK A01 T01170114  RH  098%=      5-min Rain = 0
KWA1 250820Z 26007KT 12/11 A2988 RMK A01 T01170114  RH  098%=      5-min Rain = 0
KWA1 250821Z 26007KT 12/11 A2988 RMK A01 T01170114  RH  098%=      5-min Rain = 0
KWA1 250822Z 26007KT 12/11 A2988 RMK A01 T01160114  RH  098%=      5-min Rain = 0
KWA1 250823Z 26007KT 12/11 A2988 RMK A01 T01160114  RH  098%=      5-min Rain = 0
KWA1 250824Z 26007KT 12/11 A2988 RMK A01 T01160114  RH  098%=      5-min Rain = 0
KWA1 250825Z 26006KT 12/11 A2988 RMK A01 T01160114  RH  098%=      5-min Rain = 0
KWA1 250826Z 26007KT 12/11 A2988 RMK A01 T01160114  RH  098%=      5-min Rain = 0
KWA1 250827Z 26007KT 12/11 A2988 RMK A01 T01160114  RH  098%=      5-min Rain = 0
KWA1 250828Z 26006KT 12/11 A2988 RMK A01 T01160114  RH  098%=      5-min Rain = 0
KWA1 250829Z 25007KT 12/11 A2988 RMK A01 T01160114  RH  098%=      5-min Rain = 0
KWA1 250830Z 25007KT 12/11 A2988 RMK A01 T01160114  RH  098%=      5-min Rain = 0
KWA1 250831Z 25007KT 12/11 A2988 RMK A01 T01160114  RH  098%=      5-min Rain = 0
KWA1 250832Z 25007KT 12/11 A2988 RMK A01 T01160114  RH  098%=      5-min Rain = 0
KWA1 250833Z 25007KT 12/11 A2988 RMK A01 T01160114  RH  098%=      5-min Rain = 0
KWA1 250834Z 25007KT 12/11 A2988 RMK A01 T01160114  RH  098%=      5-min Rain = 0
KWA1 250835Z 25007KT 12/11 A2988 RMK A01 T01160114  RH  098%=      5-min Rain = 0
KWA1 250836Z 25007KT 12/11 A2988 RMK A01 T01160114  RH  098%=      5-min Rain = 0
KWA1 250837Z 25007KT 12/11 A2988 RMK A01 T01160114  RH  098%=      5-min Rain = 0
KWA1 250838Z 25008KT 12/11 A2988 RMK A01 T01160114  RH  098%=      5-min Rain = 0
KWA1 250839Z 25007KT 12/11 A2988 RMK A01 T01160114  RH  098%=      5-min Rain = 0
KWA1 250840Z 26008KT 12/11 A2988 RMK A01 T01160114  RH  098%=      5-min Rain = 0
KWA1 250841Z 26007KT 12/11 A2988 RMK A01 T01160114  RH  098%=      5-min Rain = 0
KWA1 250842Z 26008KT 12/11 A2988 RMK A01 T01160114  RH  098%=      5-min Rain = 0
KWA1 250843Z 26008KT 12/11 A2988 RMK A01 T01160114  RH  098%=      5-min Rain = 0
KWA1 250844Z 25008KT 12/11 A2988 RMK A01 T01160114  RH  098%=      5-min Rain = 0
KWA1 250845Z 25008KT 12/11 A2988 RMK A01 T01160114  RH  098%=      5-min Rain = 0
KWA1 250846Z 25008KT 12/11 A2988 RMK A01 T01160114  RH  098%=      5-min Rain = 0
KWA1 250847Z 25008KT 12/11 A2988 RMK A01 T01160114  RH  098%=      5-min Rain = 0
KWA1 250848Z 25008KT 12/11 A2988 RMK A01 T01160114  RH  098%=      5-min Rain = 0
KWA1 250849Z 25008KT 12/11 A2988 RMK A01 T01160113  RH  098%=      5-min Rain = 0
KWA1 250850Z 25008KT 12/11 A2988 RMK A01 T01160113  RH  098%=      5-min Rain = 0
KWA1 250851Z 25008KT 12/11 A2988 RMK A01 T01160113  RH  098%=      5-min Rain = 0
KWA1 250852Z 25007KT 12/11 A2988 RMK A01 T01160113  RH  098%=      5-min Rain = 0
KWA1 250853Z 25007KT 12/11 A2988 RMK A01 T01150113  RH  098%=      5-min Rain = 0
KWA1 250854Z 25007KT 12/11 A2988 RMK A01 T01150112  RH  098%=      5-min Rain = 0
KWA1 250855Z 24007KT 11/11 A2988 RMK A01 T01140112  RH  098%=      5-min Rain = 0
KWA1 250856Z 24007KT 11/11 A2988 RMK A01 T01140111  RH  098%=      5-min Rain = 0
KWA1 250857Z 24007KT 11/11 A2988 RMK A01 T01140111  RH  098%=      5-min Rain = 0
KWA1 250858Z 24007KT 11/11 A2988 RMK A01 T01140111  RH  098%=      5-min Rain = 0
KWA1 250859Z 24008KT 11/11 A2988 RMK A01 T01140111  RH  098%=      5-min Rain = 0
KWA1 250900Z 24008KT 11/11 A2988 RMK A01 T01140111  RH  098%=      5-min Rain = 0
KWA1 250901Z 24007KT 11/11 A2988 RMK A01 T01140111  RH  098%=      5-min Rain = 0
KWA1 250902Z 24008KT 11/11 A2988 RMK A01 T01130111  RH  098%=      5-min Rain = 0
KWA1 250903Z 24008KT 11/11 A2988 RMK A01 T01130111  RH  098%=      5-min Rain = 0
KWA1 250904Z 24008KT 11/11 A2988 RMK A01 T01130111  RH  098%=      5-min Rain = 0
KWA1 250905Z 24007KT 11/11 A2988 RMK A01 T01130111  RH  098%=      5-min Rain = 0
KWA1 250906Z 24007KT 11/11 A2988 RMK A01 T01130111  RH  098%=      5-min Rain = 0
KWA1 250907Z 24007KT 11/11 A2988 RMK A01 T01130111  RH  098%=      5-min Rain = 0
KWA1 250908Z 24007KT 11/11 A2988 RMK A01 T01140111  RH  098%=      5-min Rain = 0
KWA1 250909Z 24007KT 11/11 A2988 RMK A01 T01130110  RH  098%=      5-min Rain = 0
KWA1 250910Z 24006KT 11/11 A2988 RMK A01 T01130111  RH  098%=      5-min Rain = 0
KWA1 250911Z 24007KT 11/11 A2988 RMK A01 T01130111  RH  098%=      5-min Rain = 0
KWA1 250912Z 24007KT 11/11 A2988 RMK A01 T01130111  RH  098%=      5-min Rain = 0
KWA1 250913Z 24007KT 11/11 A2988 RMK A01 T01130110  RH  098%=      5-min Rain = 0
KWA1 250914Z 25007KT 11/11 A2988 RMK A01 T01130110  RH  098%=      5-min Rain = 0
KWA1 250915Z 25007KT 11/11 A2988 RMK A01 T01130110  RH  098%=      5-min Rain = 0
KWA1 250916Z 25008KT 11/11 A2988 RMK A01 T01130110  RH  098%=      5-min Rain = 0
KWA1 250917Z 25008KT 11/11 A2988 RMK A01 T01130110  RH  098%=      5-min Rain = 0
KWA1 250918Z 25008KT 11/11 A2988 RMK A01 T01130110  RH  098%=      5-min Rain = 0
KWA1 250919Z 25008KT 11/11 A2988 RMK A01 T01130110  RH  098%=      5-min Rain = 0
KWA1 250920Z 25008KT 11/11 A2988 RMK A01 T01130110  RH  098%=      5-min Rain = 0
KWA1 250921Z 25008KT 11/11 A2988 RMK A01 T01130110  RH  098%=      5-min Rain = 0
KWA1 250922Z 25008KT 11/11 A2988 RMK A01 T01130110  RH  098%=      5-min Rain = 0
KWA1 250923Z 25008KT 11/11 A2988 RMK A01 T01130110  RH  098%=      5-min Rain = 0
KWA1 250924Z 25008KT 11/11 A2988 RMK A01 T01130110  RH  098%=      5-min Rain = 0
KWA1 250925Z 25007KT 11/11 A2988 RMK A01 T01130110  RH  098%=      5-min Rain = 0
KWA1 250926Z 25007KT 11/11 A2988 RMK A01 T01130110  RH  098%=      5-min Rain = 0
KWA1 250927Z 25007KT 11/11 A2988 RMK A01 T01130109  RH  098%=      5-min Rain = 0
KWA1 250928Z 25007KT 11/11 A2988 RMK A01 T01130109  RH  098%=      5-min Rain = 0
KWA1 250929Z 25007KT 11/11 A2988 RMK A01 T01130109  RH  098%=      5-min Rain = 0
KWA1 250930Z 25007KT 11/11 A2988 RMK A01 T01130109  RH  098%=      5-min Rain = 0
KWA1 250931Z 25008KT 11/11 A2988 RMK A01 T01130109  RH  098%=      5-min Rain = 0
KWA1 250932Z 25008KT 11/11 A2988 RMK A01 T01130109  RH  098%=      5-min Rain = 0
KWA1 250933Z 25007KT 11/11 A2988 RMK A01 T01130109  RH  098%=      5-min Rain = 0
KWA1 250934Z 25007KT 11/11 A2988 RMK A01 T01130109  RH  097%=      5-min Rain = 0
KWA1 250935Z 25007KT 11/11 A2988 RMK A01 T01130109  RH  097%=      5-min Rain = 0
KWA1 250936Z 24007KT 11/11 A2988 RMK A01 T01130109  RH  097%=      5-min Rain = 0
KWA1 250937Z 24007KT 11/11 A2988 RMK A01 T01130109  RH  097%=      5-min Rain = 0
KWA1 250938Z 24007KT 11/11 A2988 RMK A01 T01130109  RH  097%=      5-min Rain = 0
KWA1 250939Z 24008KT 11/11 A2988 RMK A01 T01130109  RH  097%=      5-min Rain = 0
KWA1 250940Z 24007KT 11/11 A2988 RMK A01 T01130109  RH  097%=      5-min Rain = 0
KWA1 250941Z 24008KT 11/11 A2988 RMK A01 T01130109  RH  097%=      5-min Rain = 0
KWA1 250942Z 24007KT 11/11 A2988 RMK A01 T01130109  RH  097%=      5-min Rain = 0
KWA1 250943Z 24007KT 11/11 A2988 RMK A01 T01130109  RH  097%=      5-min Rain = 0
KWA1 250944Z 24007KT 11/11 A2988 RMK A01 T01130109  RH  097%=      5-min Rain = 0
KWA1 250945Z 24008KT 11/11 A2988 RMK A01 T01130109  RH  097%=      5-min Rain = 0
KWA1 250946Z 24007KT 11/11 A2988 RMK A01 T01130109  RH  097%=      5-min Rain = 0
KWA1 250947Z 24008KT 11/11 A2988 RMK A01 T01130109  RH  097%=      5-min Rain = 0
KWA1 250948Z 24008KT 11/11 A2988 RMK A01 T01130108  RH  097%=      5-min Rain = 0
KWA1 250949Z 24008KT 11/11 A2988 RMK A01 T01130108  RH  097%=      5-min Rain = 0
KWA1 250950Z 24008KT 11/11 A2988 RMK A01 T01130109  RH  097%=      5-min Rain = 0
KWA1 250951Z 24008KT 11/11 A2988 RMK A01 T01130108  RH  097%=      5-min Rain = 0
KWA1 250952Z 24007KT 11/11 A2988 RMK A01 T01130108  RH  097%=      5-min Rain = 0
KWA1 250953Z 24008KT 11/11 A2988 RMK A01 T01140109  RH  097%=      5-min Rain = 0
KWA1 250954Z 23007KT 11/11 A2988 RMK A01 T01140108  RH  096%=      5-min Rain = 0
KWA1 250955Z 23007KT 11/11 A2988 RMK A01 T01140108  RH  096%=      5-min Rain = 0
KWA1 250956Z 23007KT 11/11 A2988 RMK A01 T01140108  RH  096%=      5-min Rain = 0
KWA1 250957Z 23007KT 11/11 A2988 RMK A01 T01130107  RH  096%=      5-min Rain = 0
KWA1 250958Z 23007KT 11/11 A2988 RMK A01 T01130107  RH  096%=      5-min Rain = 0
KWA1 250959Z 23006KT 11/11 A2988 RMK A01 T01120107  RH  096%=      5-min Rain = 0
KWA1 251000Z 23007KT 11/11 A2988 RMK A01 T01120106  RH  096%=      5-min Rain = 0
KWA1 251001Z 23007KT 11/11 A2988 RMK A01 T01120106  RH  096%=      5-min Rain = 0
KWA1 251002Z 23007KT 11/11 A2988 RMK A01 T01120106  RH  096%=      5-min Rain = 0
KWA1 251003Z 24007KT 11/11 A2988 RMK A01 T01110105  RH  096%=      5-min Rain = 0
KWA1 251004Z 24007KT 11/11 A2988 RMK A01 T01110105  RH  096%=      5-min Rain = 0
KWA1 251005Z 24007KT 11/11 A2988 RMK A01 T01110106  RH  096%=      5-min Rain = 0
KWA1 251006Z 24007KT 11/11 A2988 RMK A01 T01110106  RH  096%=      5-min Rain = 0
KWA1 251007Z 24007KT 11/11 A2988 RMK A01 T01110105  RH  096%=      5-min Rain = 0
KWA1 251008Z 24008KT 11/11 A2988 RMK A01 T01110106  RH  096%=      5-min Rain = 0
KWA1 251009Z 24008KT 11/11 A2988 RMK A01 T01110106  RH  096%=      5-min Rain = 0
KWA1 251010Z 24008KT 11/11 A2988 RMK A01 T01120106  RH  096%=      5-min Rain = 0
KWA1 251011Z 24008KT 11/11 A2988 RMK A01 T01120106  RH  096%=      5-min Rain = 0
KWA1 251012Z 24008KT 11/11 A2988 RMK A01 T01120106  RH  096%=      5-min Rain = 0
KWA1 251013Z 24007KT 11/11 A2988 RMK A01 T01120106  RH  096%=      5-min Rain = 0
KWA1 251014Z 24008KT 11/11 A2988 RMK A01 T01130106  RH  096%=      5-min Rain = 0
KWA1 251015Z 24008KT 11/11 A2988 RMK A01 T01130106  RH  095%=      5-min Rain = 0
KWA1 251016Z 24008KT 11/11 A2988 RMK A01 T01130106  RH  095%=      5-min Rain = 0
KWA1 251017Z 24008KT 11/11 A2988 RMK A01 T01140106  RH  095%=      5-min Rain = 0
KWA1 251018Z 24008KT 11/11 A2988 RMK A01 T01140106  RH  095%=      5-min Rain = 0
KWA1 251019Z 24008KT 11/11 A2988 RMK A01 T01140106  RH  095%=      5-min Rain = 0
KWA1 251020Z 24008KT 12/11 A2988 RMK A01 T01150106  RH  094%=      5-min Rain = 0
KWA1 251021Z 24008KT 12/11 A2988 RMK A01 T01150106  RH  094%=      5-min Rain = 0
KWA1 251022Z 24008KT 12/11 A2988 RMK A01 T01150106  RH  094%=      5-min Rain = 0
KWA1 251023Z 24008KT 12/11 A2988 RMK A01 T01160106  RH  094%=      5-min Rain = 0
KWA1 251024Z 24009KT 12/11 A2988 RMK A01 T01160106  RH  094%=      5-min Rain = 0
KWA1 251025Z 25008KT 12/11 A2988 RMK A01 T01160106  RH  093%=      5-min Rain = 0
KWA1 251026Z 24008KT 12/11 A2988 RMK A01 T01160106  RH  093%=      5-min Rain = 0
KWA1 251027Z 25009KT 12/11 A2988 RMK A01 T01160106  RH  093%=      5-min Rain = 0
KWA1 251028Z 25009KT 12/11 A2988 RMK A01 T01160105  RH  093%=      5-min Rain = 0
KWA1 251029Z 25009KT 12/11 A2988 RMK A01 T01160106  RH  093%=      5-min Rain = 0
KWA1 251030Z 25009KT 12/11 A2988 RMK A01 T01160105  RH  093%=      5-min Rain = 0
KWA1 251031Z 25008KT 12/11 A2989 RMK A01 T01160106  RH  093%=      5-min Rain = 0
KWA1 251032Z 26008KT 12/11 A2989 RMK A01 T01160105  RH  093%=      5-min Rain = 0
KWA1 251033Z 25007KT 12/11 A2989 RMK A01 T01160105  RH  093%=      5-min Rain = 0
KWA1 251034Z 26007KT 12/11 A2989 RMK A01 T01160105  RH  093%=      5-min Rain = 0
KWA1 251035Z 26007KT 12/11 A2989 RMK A01 T01150105  RH  093%=      5-min Rain = 0
KWA1 251036Z 26007KT 12/11 A2989 RMK A01 T01150105  RH  093%=      5-min Rain = 0
KWA1 251037Z 26007KT 12/11 A2989 RMK A01 T01150105  RH  093%=      5-min Rain = 0
KWA1 251038Z 26007KT 11/11 A2989 RMK A01 T01140105  RH  094%=      5-min Rain = 0
KWA1 251039Z 25008KT 11/10 A2989 RMK A01 T01140104  RH  094%=      5-min Rain = 0
KWA1 251040Z 25008KT 11/10 A2989 RMK A01 T01130104  RH  094%=      5-min Rain = 0
KWA1 251041Z 25007KT 11/10 A2989 RMK A01 T01130104  RH  094%=      5-min Rain = 0
KWA1 251042Z 25007KT 11/10 A2989 RMK A01 T01130104  RH  094%=      5-min Rain = 0
KWA1 251043Z 25007KT 11/10 A2989 RMK A01 T01120104  RH  094%=      5-min Rain = 0
KWA1 251044Z 25008KT 11/10 A2989 RMK A01 T01130104  RH  094%=      5-min Rain = 0
KWA1 251045Z 25007KT 11/10 A2989 RMK A01 T01130104  RH  095%=      5-min Rain = 0
KWA1 251046Z 25007KT 11/10 A2989 RMK A01 T01120104  RH  095%=      5-min Rain = 0
KWA1 251047Z 25007KT 11/10 A2989 RMK A01 T01120104  RH  094%=      5-min Rain = 0
KWA1 251048Z 25007KT 11/10 A2989 RMK A01 T01120104  RH  094%=      5-min Rain = 0
KWA1 251049Z 25007KT 11/10 A2989 RMK A01 T01120104  RH  094%=      5-min Rain = 0
KWA1 251050Z 25008KT 11/10 A2989 RMK A01 T01120104  RH  094%=      5-min Rain = 0
KWA1 251051Z 25008KT 11/10 A2989 RMK A01 T01120103  RH  094%=      5-min Rain = 0
KWA1 251052Z 25008KT 11/10 A2989 RMK A01 T01120103  RH  094%=      5-min Rain = 0
KWA1 251053Z 25007KT 11/10 A2989 RMK A01 T01120103  RH  094%=      5-min Rain = 0
KWA1 251054Z 25007KT 11/10 A2989 RMK A01 T01120103  RH  094%=      5-min Rain = 0
KWA1 251055Z 24008KT 11/10 A2989 RMK A01 T01120103  RH  094%=      5-min Rain = 0
KWA1 251056Z 24008KT 11/10 A2989 RMK A01 T01120103  RH  094%=      5-min Rain = 0
KWA1 251057Z 24008KT 11/10 A2989 RMK A01 T01120103  RH  094%=      5-min Rain = 0
KWA1 251058Z 24008KT 11/10 A2989 RMK A01 T01120103  RH  094%=      5-min Rain = 0
KWA1 251059Z 24008KT 11/10 A2989 RMK A01 T01120103  RH  094%=      5-min Rain = 0
KWA1 251100Z 24008KT 11/10 A2989 RMK A01 T01120103  RH  094%=      5-min Rain = 0
KWA1 251101Z 24008KT 11/10 A2989 RMK A01 T01120103  RH  094%=      5-min Rain = 0
KWA1 251102Z 24008KT 11/10 A2989 RMK A01 T01120103  RH  094%=      5-min Rain = 0
KWA1 251103Z 24008KT 11/10 A2989 RMK A01 T01120103  RH  094%=      5-min Rain = 0
KWA1 251104Z 24008KT 11/10 A2989 RMK A01 T01120102  RH  094%=      5-min Rain = 0
KWA1 251105Z 24008KT 11/10 A2989 RMK A01 T01120102  RH  094%=      5-min Rain = 0
KWA1 251106Z 24008KT 11/10 A2989 RMK A01 T01110102  RH  094%=      5-min Rain = 0
KWA1 251107Z 24008KT 11/10 A2989 RMK A01 T01110102  RH  094%=      5-min Rain = 0
KWA1 251108Z 24008KT 11/10 A2989 RMK A01 T01110102  RH  094%=      5-min Rain = 0
KWA1 251109Z 24008KT 11/10 A2989 RMK A01 T01110102  RH  094%=      5-min Rain = 0
KWA1 251110Z 24008KT 11/10 A2989 RMK A01 T01110102  RH  094%=      5-min Rain = 0
KWA1 251111Z 24008KT 11/10 A2989 RMK A01 T01110102  RH  094%=      5-min Rain = 0
KWA1 251112Z 24008KT 11/10 A2989 RMK A01 T01110102  RH  094%=      5-min Rain = 0
KWA1 251113Z 24007KT 11/10 A2989 RMK A01 T01120102  RH  094%=      5-min Rain = 0
KWA1 251114Z 24007KT 11/10 A2989 RMK A01 T01110102  RH  094%=      5-min Rain = 0
KWA1 251115Z 24008KT 11/10 A2989 RMK A01 T01110102  RH  094%=      5-min Rain = 0
KWA1 251116Z 24008KT 11/10 A2989 RMK A01 T01110102  RH  094%=      5-min Rain = 0
KWA1 251117Z 24007KT 11/10 A2989 RMK A01 T01110102  RH  094%=      5-min Rain = 0
KWA1 251118Z 24007KT 11/10 A2989 RMK A01 T01110102  RH  094%=      5-min Rain = 0
KWA1 251119Z 24007KT 11/10 A2989 RMK A01 T01100101  RH  094%=      5-min Rain = 0
KWA1 251120Z 24007KT 11/10 A2989 RMK A01 T01100101  RH  094%=      5-min Rain = 0
KWA1 251121Z 24007KT 11/10 A2989 RMK A01 T01100102  RH  095%=      5-min Rain = 0
KWA1 251122Z 24007KT 11/10 A2989 RMK A01 T01100102  RH  095%=      5-min Rain = 0
KWA1 251123Z 25006KT 11/10 A2989 RMK A01 T01100102  RH  095%=      5-min Rain = 0
KWA1 251124Z 25007KT 11/10 A2989 RMK A01 T01100102  RH  095%=      5-min Rain = 0
KWA1 251125Z 25007KT 11/10 A299 RMK A01 T01090101  RH  095%=      5-min Rain = 0
KWA1 251126Z 25007KT 11/10 A299 RMK A01 T01090101  RH  095%=      5-min Rain = 0
KWA1 251127Z 25007KT 11/10 A299 RMK A01 T01090102  RH  095%=      5-min Rain = 0
KWA1 251128Z 25007KT 11/10 A299 RMK A01 T01090102  RH  095%=      5-min Rain = 0
KWA1 251129Z 25006KT 11/10 A299 RMK A01 T01090101  RH  095%=      5-min Rain = 0
KWA1 251130Z 26006KT 11/10 A299 RMK A01 T01090101  RH  095%=      5-min Rain = 0
KWA1 251131Z 25006KT 11/10 A299 RMK A01 T01090101  RH  095%=      5-min Rain = 0
KWA1 251132Z 26006KT 11/10 A299 RMK A01 T01080101  RH  095%=      5-min Rain = 0
KWA1 251133Z 26006KT 11/10 A299 RMK A01 T01080101  RH  095%=      5-min Rain = 0
KWA1 251134Z 26006KT 11/10 A299 RMK A01 T01080101  RH  095%=      5-min Rain = 0
KWA1 251135Z 26006KT 11/10 A299 RMK A01 T01080100  RH  095%=      5-min Rain = 0
KWA1 251136Z 25005KT 11/10 A299 RMK A01 T01070100  RH  095%=      5-min Rain = 0
KWA1 251137Z 25006KT 11/10 A299 RMK A01 T01070100  RH  095%=      5-min Rain = 0
KWA1 251138Z 26005KT 11/10 A299 RMK A01 T01070100  RH  096%=      5-min Rain = 0
KWA1 251139Z 26005KT 11/10 A299 RMK A01 T01060100  RH  096%=      5-min Rain = 0
KWA1 251140Z 26005KT 11/10 A299 RMK A01 T01060100  RH  096%=      5-min Rain = 0
KWA1 251141Z 26005KT 11/10 A299 RMK A01 T01060100  RH  096%=      5-min Rain = 0
KWA1 251142Z 25005KT 11/10 A299 RMK A01 T01060100  RH  096%=      5-min Rain = 0
KWA1 251143Z 25005KT 11/10 A299 RMK A01 T01050099  RH  096%=      5-min Rain = 0
KWA1 251144Z 26006KT 11/10 A299 RMK A01 T01060100  RH  096%=      5-min Rain = 0
KWA1 251145Z 26006KT 11/10 A299 RMK A01 T01050099  RH  096%=      5-min Rain = 0
KWA1 251146Z 25006KT 11/10 A299 RMK A01 T01050099  RH  096%=      5-min Rain = 0
KWA1 251147Z 25006KT 11/10 A299 RMK A01 T01050099  RH  096%=      5-min Rain = 0
KWA1 251148Z 25006KT 11/10 A299 RMK A01 T01050100  RH  096%=      5-min Rain = 0
KWA1 251149Z 25006KT 11/10 A299 RMK A01 T01050100  RH  096%=      5-min Rain = 0
KWA1 251150Z 25006KT 11/10 A299 RMK A01 T01050099  RH  096%=      5-min Rain = 0
KWA1 251151Z 25006KT 11/10 A299 RMK A01 T01050099  RH  096%=      5-min Rain = 0
KWA1 251152Z 25006KT 10/10 A299 RMK A01 T01040099  RH  096%=      5-min Rain = 0
KWA1 251153Z 25006KT 10/10 A299 RMK A01 T01040099  RH  096%=      5-min Rain = 0
KWA1 251154Z 24006KT 10/10 A299 RMK A01 T01040099  RH  097%=      5-min Rain = 0
KWA1 251155Z 25006KT 10/10 A299 RMK A01 T01040099  RH  097%=      5-min Rain = 0
KWA1 251156Z 25007KT 10/10 A299 RMK A01 T01040099  RH  097%=      5-min Rain = 0
KWA1 251157Z 24007KT 10/10 A299 RMK A01 T01040099  RH  096%=      5-min Rain = 0
KWA1 251158Z 25007KT 10/10 A2991 RMK A01 T01040099  RH  096%=      5-min Rain = 0
KWA1 251159Z 25007KT 10/10 A2991 RMK A01 T01040099  RH  096%=      5-min Rain = 0
KWA1 251200Z 25007KT 10/10 A2991 RMK A01 T01040099  RH  096%=      5-min Rain = 0
KWA1 251201Z 25007KT 10/10 A2991 RMK A01 T01040099  RH  096%=      5-min Rain = 0
KWA1 251202Z 25007KT 10/10 A2991 RMK A01 T01040098  RH  096%=      5-min Rain = 0
KWA1 251203Z 25007KT 10/10 A2991 RMK A01 T01040098  RH  096%=      5-min Rain = 0
KWA1 251204Z 25007KT 10/10 A2991 RMK A01 T01040098  RH  096%=      5-min Rain = 0
KWA1 251205Z 25007KT 10/10 A2991 RMK A01 T01040098  RH  096%=      5-min Rain = 0
KWA1 251206Z 25006KT 10/10 A2991 RMK A01 T01040098  RH  096%=      5-min Rain = 0
KWA1 251207Z 25006KT 10/10 A2991 RMK A01 T01040098  RH  096%=      5-min Rain = 0
KWA1 251208Z 25007KT 10/10 A2991 RMK A01 T01040098  RH  096%=      5-min Rain = 0
KWA1 251209Z 25007KT 10/10 A2991 RMK A01 T01040099  RH  096%=      5-min Rain = 0
KWA1 251210Z 25007KT 10/10 A2991 RMK A01 T01040098  RH  096%=      5-min Rain = 0
KWA1 251211Z 25007KT 10/10 A2991 RMK A01 T01040098  RH  096%=      5-min Rain = 0
KWA1 251212Z 25007KT 10/10 A2991 RMK A01 T01040098  RH  096%=      5-min Rain = 0
KWA1 251213Z 25007KT 11/10 A2991 RMK A01 T01050099  RH  096%=      5-min Rain = 0
KWA1 251214Z 25007KT 11/10 A2991 RMK A01 T01050099  RH  096%=      5-min Rain = 0
KWA1 251215Z 25007KT 11/10 A2991 RMK A01 T01050099  RH  096%=      5-min Rain = 0
KWA1 251216Z 25007KT 11/10 A2991 RMK A01 T01050099  RH  096%=      5-min Rain = 0
KWA1 251217Z 25007KT 11/10 A2991 RMK A01 T01050099  RH  096%=      5-min Rain = 0
KWA1 251218Z 25008KT 11/10 A2991 RMK A01 T01050099  RH  096%=      5-min Rain = 0
KWA1 251219Z 25008KT 11/10 A2992 RMK A01 T01050098  RH  096%=      5-min Rain = 0
KWA1 251220Z 25007KT 11/10 A2992 RMK A01 T01050099  RH  096%=      5-min Rain = 0
KWA1 251221Z 25007KT 11/10 A2992 RMK A01 T01050099  RH  096%=      5-min Rain = 0
KWA1 251222Z 25007KT 11/10 A2992 RMK A01 T01060099  RH  096%=      5-min Rain = 0
KWA1 251223Z 25008KT 11/10 A2992 RMK A01 T01060099  RH  095%=      5-min Rain = 0
KWA1 251224Z 25007KT 11/10 A2992 RMK A01 T01070100  RH  095%=      5-min Rain = 0
KWA1 251225Z 25008KT 11/10 A2992 RMK A01 T01070100  RH  095%=      5-min Rain = 0
KWA1 251226Z 25007KT 11/10 A2992 RMK A01 T01070100  RH  095%=      5-min Rain = 0
KWA1 251227Z 25007KT 11/10 A2992 RMK A01 T01080100  RH  095%=      5-min Rain = 0
KWA1 251228Z 25007KT 11/10 A2992 RMK A01 T01080100  RH  095%=      5-min Rain = 0
KWA1 251229Z 25007KT 11/10 A2992 RMK A01 T01080100  RH  095%=      5-min Rain = 0
KWA1 251230Z 25007KT 11/10 A2992 RMK A01 T01090100  RH  095%=      5-min Rain = 0
KWA1 251231Z 25007KT 11/10 A2992 RMK A01 T01090100  RH  094%=      5-min Rain = 0
KWA1 251232Z 25008KT 11/10 A2992 RMK A01 T01090100  RH  094%=      5-min Rain = 0
KWA1 251233Z 25008KT 11/10 A2992 RMK A01 T01090100  RH  094%=      5-min Rain = 0
KWA1 251234Z 25007KT 11/10 A2992 RMK A01 T01090100  RH  094%=      5-min Rain = 0
KWA1 251235Z 25007KT 11/10 A2992 RMK A01 T01090101  RH  094%=      5-min Rain = 0
KWA1 251236Z 26007KT 11/10 A2992 RMK A01 T01090100  RH  094%=      5-min Rain = 0
KWA1 251237Z 26007KT 11/10 A2992 RMK A01 T01090100  RH  094%=      5-min Rain = 0
KWA1 251238Z 26008KT 11/10 A2992 RMK A01 T01090100  RH  094%=      5-min Rain = 0
KWA1 251239Z 26008KT 11/10 A2992 RMK A01 T01090100  RH  094%=      5-min Rain = 0
KWA1 251240Z 26008KT 11/10 A2992 RMK A01 T01100101  RH  094%=      5-min Rain = 0
KWA1 251241Z 26007KT 11/10 A2992 RMK A01 T01100101  RH  094%=      5-min Rain = 0
KWA1 251242Z 26007KT 11/10 A2992 RMK A01 T01110102  RH  094%=      5-min Rain = 0
KWA1 251243Z 26007KT 11/10 A2992 RMK A01 T01110102  RH  094%=      5-min Rain = 0
KWA1 251244Z 26007KT 11/10 A2992 RMK A01 T01120103  RH  094%=      5-min Rain = 0
KWA1 251245Z 26007KT 11/10 A2992 RMK A01 T01120103  RH  094%=      5-min Rain = 0
KWA1 251246Z 25008KT 11/10 A2992 RMK A01 T01130103  RH  094%=      5-min Rain = 0
KWA1 251247Z 25008KT 11/10 A2992 RMK A01 T01130103  RH  093%=      5-min Rain = 0
KWA1 251248Z 25008KT 11/10 A2992 RMK A01 T01140103  RH  093%=      5-min Rain = 0
KWA1 251249Z 25007KT 11/10 A2992 RMK A01 T01140103  RH  093%=      5-min Rain = 0
KWA1 251250Z 25007KT 12/10 A2992 RMK A01 T01150103  RH  093%=      5-min Rain = 0
KWA1 251251Z 25007KT 12/10 A2992 RMK A01 T01160104  RH  093%=      5-min Rain = 0
KWA1 251252Z 25008KT 12/10 A2992 RMK A01 T01160104  RH  092%=      5-min Rain = 0
KWA1 251253Z 24007KT 12/10 A2992 RMK A01 T01160104  RH  092%=      5-min Rain = 0
KWA1 251254Z 24007KT 12/10 A2992 RMK A01 T01160104  RH  092%=      5-min Rain = 0
KWA1 251255Z 24007KT 12/11 A2992 RMK A01 T01170105  RH  092%=      5-min Rain = 0
KWA1 251256Z 24007KT 12/10 A2992 RMK A01 T01170104  RH  092%=      5-min Rain = 0
KWA1 251257Z 24007KT 12/10 A2992 RMK A01 T01160104  RH  092%=      5-min Rain = 0
KWA1 251258Z 24007KT 12/10 A2992 RMK A01 T01170104  RH  092%=      5-min Rain = 0
KWA1 251259Z 24006KT 12/10 A2992 RMK A01 T01160104  RH  092%=      5-min Rain = 0
KWA1 251300Z 24007KT 12/11 A2992 RMK A01 T01170105  RH  093%=      5-min Rain = 0
KWA1 251301Z 24007KT 12/11 A2992 RMK A01 T01170105  RH  093%=      5-min Rain = 0
KWA1 251302Z 24007KT 12/11 A2992 RMK A01 T01170105  RH  093%=      5-min Rain = 0
KWA1 251303Z 24007KT 12/11 A2992 RMK A01 T01170106  RH  093%=      5-min Rain = 0
KWA1 251304Z 24007KT 12/11 A2992 RMK A01 T01170105  RH  093%=      5-min Rain = 0
KWA1 251305Z 24007KT 12/11 A2993 RMK A01 T01180106  RH  093%=      5-min Rain = 0
KWA1 251306Z 24007KT 12/11 A2993 RMK A01 T01180107  RH  093%=      5-min Rain = 0
KWA1 251307Z 24007KT 12/11 A2993 RMK A01 T01180107  RH  092%=      5-min Rain = 0
KWA1 251308Z 25006KT 12/11 A2993 RMK A01 T01190107  RH  092%=      5-min Rain = 0
KWA1 251309Z 24006KT 12/11 A2993 RMK A01 T01190108  RH  092%=      5-min Rain = 0
KWA1 251310Z 24006KT 12/11 A2993 RMK A01 T01200108  RH  093%=      5-min Rain = 0
KWA1 251311Z 24007KT 12/11 A2992 RMK A01 T01210109  RH  092%=      5-min Rain = 0
KWA1 251312Z 24006KT 12/11 A2992 RMK A01 T01210109  RH  092%=      5-min Rain = 0
KWA1 251313Z 24007KT 12/11 A2992 RMK A01 T01210108  RH  092%=      5-min Rain = 0
KWA1 251314Z 24007KT 12/11 A2993 RMK A01 T01210108  RH  092%=      5-min Rain = 0
KWA1 251315Z 25007KT 12/11 A2993 RMK A01 T01220109  RH  092%=      5-min Rain = 0
KWA1 251316Z 24007KT 12/11 A2993 RMK A01 T01220109  RH  092%=      5-min Rain = 0
KWA1 251317Z 25007KT 12/11 A2993 RMK A01 T01230109  RH  092%=      5-min Rain = 0
KWA1 251318Z 25007KT 12/11 A2993 RMK A01 T01240111  RH  092%=      5-min Rain = 0
KWA1 251319Z 25006KT 12/11 A2993 RMK A01 T01240111  RH  092%=      5-min Rain = 0
KWA1 251320Z 25007KT 13/11 A2993 RMK A01 T01250111  RH  092%=      5-min Rain = 0
KWA1 251321Z 25006KT 13/11 A2993 RMK A01 T01250112  RH  091%=      5-min Rain = 0
KWA1 251322Z 25007KT 13/11 A2993 RMK A01 T01260112  RH  091%=      5-min Rain = 0
KWA1 251323Z 25007KT 13/11 A2993 RMK A01 T01260112  RH  091%=      5-min Rain = 0
KWA1 251324Z 25006KT 13/11 A2993 RMK A01 T01270112  RH  090%=      5-min Rain = 0
KWA1 251325Z 25007KT 13/11 A2993 RMK A01 T01280113  RH  091%=      5-min Rain = 0
KWA1 251326Z 25007KT 13/11 A2993 RMK A01 T01280112  RH  090%=      5-min Rain = 0
KWA1 251327Z 25007KT 13/11 A2993 RMK A01 T01280112  RH  090%=      5-min Rain = 0
KWA1 251328Z 25007KT 13/11 A2993 RMK A01 T01290113  RH  090%=      5-min Rain = 0
KWA1 251329Z 25007KT 13/11 A2993 RMK A01 T01300114  RH  090%=      5-min Rain = 0
KWA1 251330Z 25007KT 13/12 A2993 RMK A01 T01300115  RH  090%=      5-min Rain = 0
KWA1 251331Z 25007KT 13/12 A2993 RMK A01 T01310115  RH  090%=      5-min Rain = 0
KWA1 251332Z 25007KT 13/12 A2993 RMK A01 T01310115  RH  090%=      5-min Rain = 0
KWA1 251333Z 25006KT 13/12 A2993 RMK A01 T01320116  RH  090%=      5-min Rain = 0
KWA1 251334Z 24007KT 13/12 A2993 RMK A01 T01320116  RH  090%=      5-min Rain = 0
KWA1 251335Z 24007KT 13/11 A2993 RMK A01 T01320114  RH  089%=      5-min Rain = 0
KWA1 251336Z 25006KT 13/12 A2993 RMK A01 T01330116  RH  090%=      5-min Rain = 0
KWA1 251337Z 24007KT 13/12 A2993 RMK A01 T01340118  RH  090%=      5-min Rain = 0
KWA1 251338Z 25007KT 13/12 A2993 RMK A01 T01340116  RH  089%=      5-min Rain = 0
KWA1 251339Z 25006KT 13/12 A2993 RMK A01 T01340118  RH  090%=      5-min Rain = 0
KWA1 251340Z 24006KT 14/12 A2993 RMK A01 T01350118  RH  089%=      5-min Rain = 0
KWA1 251341Z 24006KT 14/12 A2993 RMK A01 T01360120  RH  090%=      5-min Rain = 0
KWA1 251342Z 24008KT 14/12 A2993 RMK A01 T01370121  RH  090%=      5-min Rain = 0
KWA1 251343Z 24007KT 14/12 A2993 RMK A01 T01380119  RH  089%=      5-min Rain = 0
KWA1 251344Z 24007KT 14/12 A2993 RMK A01 T01390119  RH  088%=      5-min Rain = 0
KWA1 251345Z 24008KT 14/12 A2993 RMK A01 T01390120  RH  088%=      5-min Rain = 0
KWA1 251346Z 24007KT 14/12 A2993 RMK A01 T01400120  RH  088%=      5-min Rain = 0
KWA1 251347Z 24008KT 14/12 A2993 RMK A01 T01410122  RH  088%=      5-min Rain = 0
KWA1 251348Z 24007KT 14/12 A2993 RMK A01 T01410121  RH  087%=      5-min Rain = 0
KWA1 251349Z 24007KT 14/12 A2993 RMK A01 T01420123  RH  088%=      5-min Rain = 0
KWA1 251350Z 25008KT 14/12 A2993 RMK A01 T01430123  RH  088%=      5-min Rain = 0
KWA1 251351Z 25008KT 14/12 A2993 RMK A01 T01440124  RH  088%=      5-min Rain = 0
KWA1 251352Z 25008KT 15/12 A2993 RMK A01 T01450121  RH  086%=      5-min Rain = 0
KWA1 251353Z 25008KT 15/13 A2993 RMK A01 T01460126  RH  087%=      5-min Rain = 0
KWA1 251354Z 25008KT 15/12 A2993 RMK A01 T01470124  RH  086%=      5-min Rain = 0
KWA1 251355Z 25009KT 15/12 A2993 RMK A01 T01480124  RH  085%=      5-min Rain = 0
KWA1 251356Z 25009KT 15/12 A2993 RMK A01 T01490123  RH  085%=      5-min Rain = 0
KWA1 251357Z 25010KT 15/12 A2993 RMK A01 T01490123  RH  084%=      5-min Rain = 0
KWA1 251358Z 25009KT 15/12 A2993 RMK A01 T01500123  RH  084%=      5-min Rain = 0
KWA1 251359Z 25009KT 15/13 A2993 RMK A01 T01510126  RH  085%=      5-min Rain = 0
KWA1 251400Z 25009KT 15/13 A2993 RMK A01 T01520127  RH  085%=      5-min Rain = 0
KWA1 251401Z 25011KT 15/12 A2993 RMK A01 T01520124  RH  083%=      5-min Rain = 0
KWA1 251402Z 25009KT 15/13 A2993 RMK A01 T01530125  RH  083%=      5-min Rain = 0
KWA1 251403Z 25011KT 15/13 A2993 RMK A01 T01540126  RH  083%=      5-min Rain = 0
KWA1 251404Z 25010KT 15/13 A2993 RMK A01 T01540125  RH  083%=      5-min Rain = 0
KWA1 251405Z 24012KT 15/13 A2993 RMK A01 T01540127  RH  084%=      5-min Rain = 0
KWA1 251406Z 24011KT 16/12 A2993 RMK A01 T01550124  RH  082%=      5-min Rain = 0
KWA1 251407Z 24011KT 15/12 A2993 RMK A01 T01540123  RH  081%=      5-min Rain = 0
KWA1 251408Z 24011KT 16/13 A2993 RMK A01 T01550126  RH  083%=      5-min Rain = 0
KWA1 251409Z 24011KT 16/12 A2993 RMK A01 T01560124  RH  081%=      5-min Rain = 0
KWA1 251410Z 25011KT 16/12 A2993 RMK A01 T01560124  RH  081%=      5-min Rain = 0
KWA1 251411Z 24010KT 16/13 A2993 RMK A01 T01560125  RH  082%=      5-min Rain = 0
KWA1 251412Z 24010KT 16/13 A2992 RMK A01 T01570127  RH  082%=      5-min Rain = 0
KWA1 251413Z 25010KT 16/13 A2992 RMK A01 T01570126  RH  081%=      5-min Rain = 0
KWA1 251414Z 25010KT 16/12 A2992 RMK A01 T01580123  RH  080%=      5-min Rain = 0
KWA1 251415Z 25010KT 16/13 A2992 RMK A01 T01580125  RH  081%=      5-min Rain = 0
KWA1 251416Z 25009KT 16/13 A2993 RMK A01 T01580125  RH  081%=      5-min Rain = 0
KWA1 251417Z 25010KT 16/13 A2993 RMK A01 T01590126  RH  081%=      5-min Rain = 0
KWA1 251418Z 25010KT 16/13 A2993 RMK A01 T01590126  RH  081%=      5-min Rain = 0
KWA1 251419Z 25010KT 16/12 A2992 RMK A01 T01590124  RH  080%=      5-min Rain = 0
KWA1 251420Z 25009KT 16/13 A2993 RMK A01 T01600127  RH  081%=      5-min Rain = 0
KWA1 251421Z 26010KT 16/13 A2993 RMK A01 T01610129  RH  081%=      5-min Rain = 0
KWA1 251422Z 26010KT 16/13 A2993 RMK A01 T01610126  RH  080%=      5-min Rain = 0
KWA1 251423Z 25010KT 16/13 A2993 RMK A01 T01620128  RH  081%=      5-min Rain = 0
KWA1 251424Z 25008KT 16/13 A2993 RMK A01 T01630129  RH  081%=      5-min Rain = 0
KWA1 251425Z 26008KT 16/13 A2993 RMK A01 T01640134  RH  082%=      5-min Rain = 0
KWA1 251426Z 26009KT 16/13 A2993 RMK A01 T01640131  RH  081%=      5-min Rain = 0
KWA1 251427Z 25009KT 16/13 A2993 RMK A01 T01640132  RH  081%=      5-min Rain = 0
KWA1 251428Z 25010KT 16/13 A2993 RMK A01 T01640132  RH  081%=      5-min Rain = 0
KWA1 251429Z 25009KT 17/13 A2993 RMK A01 T01650133  RH  082%=      5-min Rain = 0
KWA1 251430Z 26009KT 17/13 A2993 RMK A01 T01650133  RH  081%=      5-min Rain = 0
KWA1 251431Z 26009KT 17/13 A2993 RMK A01 T01650132  RH  081%=      5-min Rain = 0
KWA1 251432Z 26010KT 17/14 A2993 RMK A01 T01670137  RH  082%=      5-min Rain = 0
KWA1 251433Z 26009KT 17/14 A2993 RMK A01 T01680135  RH  081%=      5-min Rain = 0
KWA1 251434Z 26009KT 17/14 A2993 RMK A01 T01700137  RH  081%=      5-min Rain = 0
KWA1 251435Z 26010KT 17/13 A2993 RMK A01 T01710131  RH  077%=      5-min Rain = 0
KWA1 251436Z 26011KT 17/13 A2993 RMK A01 T01710127  RH  075%=      5-min Rain = 0
KWA1 251437Z 26010KT 17/13 A2993 RMK A01 T01720132  RH  077%=      5-min Rain = 0
KWA1 251438Z 26010KT 17/13 A2993 RMK A01 T01730130  RH  076%=      5-min Rain = 0
KWA1 251439Z 25010KT 17/13 A2993 RMK A01 T01730130  RH  076%=      5-min Rain = 0
KWA1 251440Z 26010KT 17/13 A2993 RMK A01 T01730133  RH  077%=      5-min Rain = 0
KWA1 251441Z 26010KT 17/13 A2993 RMK A01 T01740133  RH  077%=      5-min Rain = 0
KWA1 251442Z 26010KT 18/13 A2993 RMK A01 T01750130  RH  075%=      5-min Rain = 0
KWA1 251443Z 25010KT 18/13 A2993 RMK A01 T01750133  RH  076%=      5-min Rain = 0
KWA1 251444Z 26009KT 18/13 A2993 RMK A01 T01760134  RH  076%=      5-min Rain = 0
KWA1 251445Z 25010KT 18/13 A2993 RMK A01 T01760133  RH  076%=      5-min Rain = 0
KWA1 251446Z 26009KT 18/14 A2993 RMK A01 T01770135  RH  076%=      5-min Rain = 0
KWA1 251447Z 26011KT 18/13 A2993 RMK A01 T01770128  RH  073%=      5-min Rain = 0
KWA1 251448Z 26009KT 18/13 A2993 RMK A01 T01780131  RH  074%=      5-min Rain = 0
KWA1 251449Z 25009KT 18/13 A2993 RMK A01 T01770133  RH  075%=      5-min Rain = 0
KWA1 251450Z 27007KT 18/14 A2993 RMK A01 T01780140  RH  078%=      5-min Rain = 0
KWA1 251451Z 26008KT 18/14 A2993 RMK A01 T01800144  RH  079%=      5-min Rain = 0
KWA1 251452Z 26008KT 18/14 A2993 RMK A01 T01810139  RH  076%=      5-min Rain = 0
KWA1 251453Z 26008KT 18/14 A2993 RMK A01 T01800142  RH  078%=      5-min Rain = 0
KWA1 251454Z 26010KT 18/14 A2993 RMK A01 T01820138  RH  076%=      5-min Rain = 0
KWA1 251455Z 26009KT 18/14 A2993 RMK A01 T01810136  RH  075%=      5-min Rain = 0
KWA1 251456Z 27009KT 18/14 A2993 RMK A01 T01820137  RH  075%=      5-min Rain = 0
KWA1 251457Z 26010KT 18/13 A2993 RMK A01 T01810133  RH  073%=      5-min Rain = 0
KWA1 251458Z 27010KT 18/14 A2993 RMK A01 T01820136  RH  075%=      5-min Rain = 0
KWA1 251459Z 26009KT 18/14 A2993 RMK A01 T01820137  RH  075%=      5-min Rain = 0
KWA1 251500Z 26010KT 18/14 A2993 RMK A01 T01820138  RH  075%=      5-min Rain = 0
KWA1 251501Z 26010KT 18/14 A2993 RMK A01 T01830135  RH  074%=      5-min Rain = 0
KWA1 251502Z 26010KT 18/14 A2993 RMK A01 T01840141  RH  076%=      5-min Rain = 0
KWA1 251503Z 27009KT 18/14 A2993 RMK A01 T01840137  RH  074%=      5-min Rain = 0
KWA1 251504Z 27009KT 19/14 A2993 RMK A01 T01850136  RH  073%=      5-min Rain = 0
KWA1 251505Z 27009KT 19/14 A2993 RMK A01 T01850139  RH  074%=      5-min Rain = 0
KWA1 251506Z 27009KT 19/14 A2993 RMK A01 T01860138  RH  074%=      5-min Rain = 0
KWA1 251507Z 27011KT 19/14 A2993 RMK A01 T01860135  RH  072%=      5-min Rain = 0
KWA1 251508Z 26011KT 19/14 A2993 RMK A01 T01860136  RH  072%=      5-min Rain = 0
KWA1 251509Z 26009KT 19/14 A2993 RMK A01 T01860137  RH  073%=      5-min Rain = 0
KWA1 251510Z 26010KT 19/14 A2993 RMK A01 T01870142  RH  075%=      5-min Rain = 0
KWA1 251511Z 26011KT 19/14 A2993 RMK A01 T01870141  RH  074%=      5-min Rain = 0
KWA1 251512Z 26010KT 19/14 A2993 RMK A01 T01870138  RH  073%=      5-min Rain = 0
KWA1 251513Z 27010KT 19/14 A2993 RMK A01 T01870143  RH  075%=      5-min Rain = 0
KWA1 251514Z 26011KT 19/14 A2993 RMK A01 T01870139  RH  073%=      5-min Rain = 0
KWA1 251515Z 28010KT 19/14 A2994 RMK A01 T01880142  RH  075%=      5-min Rain = 0
KWA1 251516Z 28011KT 19/14 A2994 RMK A01 T01880140  RH  074%=      5-min Rain = 0
KWA1 251517Z 29012KT 19/15 A2994 RMK A01 T01880146  RH  076%=      5-min Rain = 0
KWA1 251518Z 30013KT 19/15 A2994 RMK A01 T01880147  RH  077%=      5-min Rain = 0
KWA1 251519Z 29012KT 19/14 A2994 RMK A01 T01880142  RH  075%=      5-min Rain = 0
KWA1 251520Z 29012KT 19/14 A2994 RMK A01 T01870143  RH  075%=      5-min Rain = 0
KWA1 251521Z 30012KT 19/14 A2994 RMK A01 T01870143  RH  076%=      5-min Rain = 0
KWA1 251522Z 29011KT 19/15 A2994 RMK A01 T01870148  RH  078%=      5-min Rain = 0
KWA1 251523Z 29011KT 19/14 A2994 RMK A01 T01870143  RH  076%=      5-min Rain = 0
KWA1 251524Z 29011KT 19/15 A2994 RMK A01 T01870146  RH  077%=      5-min Rain = 0
KWA1 251525Z 29013KT 19/14 A2994 RMK A01 T01870143  RH  076%=      5-min Rain = 0
KWA1 251526Z 29012KT 19/14 A2994 RMK A01 T01870142  RH  075%=      5-min Rain = 0
KWA1 251527Z 29012KT 19/14 A2994 RMK A01 T01860144  RH  077%=      5-min Rain = 0
KWA1 251528Z 29011KT 19/15 A2994 RMK A01 T01870149  RH  079%=      5-min Rain = 0
KWA1 251529Z 29010KT 19/15 A2994 RMK A01 T01880149  RH  078%=      5-min Rain = 0
KWA1 251530Z 29011KT 19/15 A2994 RMK A01 T01890152  RH  079%=      5-min Rain = 0
KWA1 251531Z 29010KT 19/15 A2994 RMK A01 T01910153  RH  078%=      5-min Rain = 0
KWA1 251532Z 30011KT 19/15 A2994 RMK A01 T01910148  RH  076%=      5-min Rain = 0
KWA1 251533Z 29010KT 19/15 A2994 RMK A01 T01910149  RH  076%=      5-min Rain = 0
KWA1 251534Z 29010KT 19/15 A2995 RMK A01 T01920148  RH  076%=      5-min Rain = 0
KWA1 251535Z 28009KT 19/15 A2994 RMK A01 T01920147  RH  075%=      5-min Rain = 0
KWA1 251536Z 29011KT 19/14 A2994 RMK A01 T01920143  RH  073%=      5-min Rain = 0
KWA1 251537Z 29010KT 19/15 A2995 RMK A01 T01930151  RH  077%=      5-min Rain = 0
KWA1 251538Z 28011KT 19/14 A2994 RMK A01 T01940142  RH  072%=      5-min Rain = 0
KWA1 251539Z 28010KT 19/15 A2995 RMK A01 T01940145  RH  073%=      5-min Rain = 0
KWA1 251540Z 29012KT 19/14 A2995 RMK A01 T01940143  RH  072%=      5-min Rain = 0
KWA1 251541Z 29010KT 19/15 A2995 RMK A01 T01940145  RH  073%=      5-min Rain = 0
KWA1 251542Z 29011KT 20/15 A2995 RMK A01 T01960151  RH  075%=      5-min Rain = 0
KWA1 251543Z 29011KT 20/15 A2995 RMK A01 T01960145  RH  072%=      5-min Rain = 0
KWA1 251544Z 30011KT 20/15 A2995 RMK A01 T01970145  RH  072%=      5-min Rain = 0
KWA1 251545Z 30011KT 20/15 A2995 RMK A01 T01970152  RH  075%=      5-min Rain = 0
KWA1 251546Z 30012KT 20/14 A2995 RMK A01 T01980144  RH  071%=      5-min Rain = 0
KWA1 251547Z 29012KT 20/14 A2995 RMK A01 T01980144  RH  071%=      5-min Rain = 0
KWA1 251548Z 29012KT 20/15 A2995 RMK A01 T01980146  RH  072%=      5-min Rain = 0
KWA1 251549Z 29012KT 20/14 A2995 RMK A01 T01980143  RH  070%=      5-min Rain = 0
KWA1 251550Z 29011KT 20/14 A2995 RMK A01 T01980144  RH  071%=      5-min Rain = 0
KWA1 251551Z 29012KT 20/15 A2995 RMK A01 T01990145  RH  071%=      5-min Rain = 0
KWA1 251552Z 29011KT 20/14 A2995 RMK A01 T01990142  RH  070%=      5-min Rain = 0
KWA1 251553Z 29011KT 20/14 A2995 RMK A01 T01990143  RH  070%=      5-min Rain = 0
KWA1 251554Z 29009KT 20/15 A2995 RMK A01 T02000149  RH  072%=      5-min Rain = 0
KWA1 251555Z 29009KT 20/15 A2995 RMK A01 T02010152  RH  074%=      5-min Rain = 0
KWA1 251556Z 29010KT 20/15 A2995 RMK A01 T02020148  RH  071%=      5-min Rain = 0
KWA1 251557Z 28009KT 20/15 A2995 RMK A01 T02020148  RH  071%=      5-min Rain = 0
KWA1 251558Z 28009KT 20/15 A2995 RMK A01 T02010147  RH  071%=      5-min Rain = 0
KWA1 251559Z 28007KT 20/15 A2995 RMK A01 T02010149  RH  072%=      5-min Rain = 0
KWA1 251600Z 28008KT 20/15 A2995 RMK A01 T02020153  RH  073%=      5-min Rain = 0
KWA1 251601Z 28009KT 20/15 A2995 RMK A01 T02030150  RH  072%=      5-min Rain = 0
KWA1 251602Z 28008KT 20/15 A2995 RMK A01 T02040151  RH  072%=      5-min Rain = 0
KWA1 251603Z 30010KT 20/15 A2995 RMK A01 T02040151  RH  071%=      5-min Rain = 0
KWA1 251604Z 29010KT 21/15 A2995 RMK A01 T02050148  RH  069%=      5-min Rain = 0
KWA1 251605Z 29008KT 21/15 A2995 RMK A01 T02060151  RH  071%=      5-min Rain = 0
KWA1 251606Z 29007KT 21/16 A2995 RMK A01 T02070157  RH  073%=      5-min Rain = 0
KWA1 251607Z 29008KT 21/16 A2995 RMK A01 T02090160  RH  074%=      5-min Rain = 0
KWA1 251608Z 29008KT 21/16 A2995 RMK A01 T02100156  RH  071%=      5-min Rain = 0
KWA1 251609Z 28009KT 21/16 A2995 RMK A01 T02110158  RH  072%=      5-min Rain = 0
KWA1 251610Z 28010KT 21/15 A2995 RMK A01 T02120148  RH  067%=      5-min Rain = 0
KWA1 251611Z 29009KT 21/16 A2995 RMK A01 T02110160  RH  072%=      5-min Rain = 0
KWA1 251612Z 30007KT 21/15 A2995 RMK A01 T02120148  RH  067%=      5-min Rain = 0
KWA1 251613Z 28008KT 21/15 A2995 RMK A01 T02110154  RH  070%=      5-min Rain = 0
KWA1 251614Z 28009KT 21/15 A2995 RMK A01 T02110146  RH  066%=      5-min Rain = 0
KWA1 251615Z 28007KT 21/15 A2996 RMK A01 T02120151  RH  068%=      5-min Rain = 0
KWA1 251616Z 28009KT 21/15 A2996 RMK A01 T02120154  RH  069%=      5-min Rain = 0
KWA1 251617Z 29009KT 21/15 A2996 RMK A01 T02120151  RH  068%=      5-min Rain = 0
KWA1 251618Z 30008KT 21/16 A2996 RMK A01 T02130157  RH  070%=      5-min Rain = 0
KWA1 251619Z 30008KT 21/16 A2996 RMK A01 T02140157  RH  070%=      5-min Rain = 0
KWA1 251620Z 30008KT 21/16 A2996 RMK A01 T02140156  RH  069%=      5-min Rain = 0
KWA1 251621Z 29007KT 22/16 A2996 RMK A01 T02150157  RH  070%=      5-min Rain = 0
KWA1 251622Z 28008KT 22/15 A2996 RMK A01 T02150151  RH  067%=      5-min Rain = 0
KWA1 251623Z 28008KT 22/15 A2996 RMK A01 T02150148  RH  066%=      5-min Rain = 0
KWA1 251624Z 28007KT 22/15 A2996 RMK A01 T02150153  RH  068%=      5-min Rain = 0
KWA1 251625Z 29008KT 22/16 A2996 RMK A01 T02150158  RH  070%=      5-min Rain = 0
KWA1 251626Z 29008KT 22/15 A2996 RMK A01 T02160151  RH  067%=      5-min Rain = 0
KWA1 251627Z 30008KT 22/16 A2996 RMK A01 T02160155  RH  068%=      5-min Rain = 0
KWA1 251628Z 30008KT 22/15 A2996 RMK A01 T02170148  RH  065%=      5-min Rain = 0
KWA1 251629Z 30008KT 22/15 A2996 RMK A01 T02170150  RH  066%=      5-min Rain = 0
KWA1 251630Z 29008KT 22/15 A2996 RMK A01 T02180150  RH  065%=      5-min Rain = 0
KWA1 251631Z 30006KT 22/16 A2996 RMK A01 T02180155  RH  067%=      5-min Rain = 0
KWA1 251632Z 32008KT 22/16 A2996 RMK A01 T02190159  RH  069%=      5-min Rain = 0
KWA1 251633Z 30009KT 22/15 A2996 RMK A01 T02200154  RH  066%=      5-min Rain = 0
KWA1 251634Z 30010KT 22/15 A2996 RMK A01 T02200154  RH  066%=      5-min Rain = 0
KWA1 251635Z 30008KT 22/15 A2996 RMK A01 T02200152  RH  065%=      5-min Rain = 0
KWA1 251636Z 31008KT 22/16 A2996 RMK A01 T02210162  RH  069%=      5-min Rain = 0
KWA1 251637Z 31008KT 22/15 A2996 RMK A01 T02220151  RH  064%=      5-min Rain = 0
KWA1 251638Z 32007KT 22/15 A2996 RMK A01 T02210153  RH  065%=      5-min Rain = 0
KWA1 251639Z 31006KT 22/16 A2996 RMK A01 T02220155  RH  066%=      5-min Rain = 0
KWA1 251640Z 31007KT 22/16 A2996 RMK A01 T02220155  RH  066%=      5-min Rain = 0
KWA1 251641Z 29008KT 22/16 A2996 RMK A01 T02220159  RH  067%=      5-min Rain = 0
KWA1 251642Z 30006KT 22/16 A2996 RMK A01 T02230161  RH  068%=      5-min Rain = 0
KWA1 251643Z 31006KT 22/16 A2996 RMK A01 T02230158  RH  067%=      5-min Rain = 0
KWA1 251644Z 31006KT 22/15 A2996 RMK A01 T02240154  RH  065%=      5-min Rain = 0
KWA1 251645Z 30008KT 22/16 A2996 RMK A01 T02240157  RH  066%=      5-min Rain = 0
KWA1 251646Z 31009KT 22/16 A2996 RMK A01 T02240158  RH  066%=      5-min Rain = 0
KWA1 251647Z 32007KT 22/15 A2996 RMK A01 T02240153  RH  064%=      5-min Rain = 0
KWA1 251648Z 33006KT 22/16 A2996 RMK A01 T02240157  RH  066%=      5-min Rain = 0
KWA1 251649Z 34004KT 22/16 A2996 RMK A01 T02240155  RH  065%=      5-min Rain = 0
KWA1 251650Z 31006KT 22/16 A2996 RMK A01 T02240160  RH  067%=      5-min Rain = 0
KWA1 251651Z 31007KT 23/15 A2996 RMK A01 T02250154  RH  064%=      5-min Rain = 0
KWA1 251652Z 29006KT 23/16 A2996 RMK A01 T02250155  RH  065%=      5-min Rain = 0
KWA1 251653Z 30007KT 23/16 A2996 RMK A01 T02260161  RH  067%=      5-min Rain = 0
KWA1 251654Z 32008KT 23/16 A2996 RMK A01 T02270155  RH  064%=      5-min Rain = 0
KWA1 251655Z 32008KT 23/16 A2996 RMK A01 T02280163  RH  067%=      5-min Rain = 0
KWA1 251656Z 32007KT 23/15 A2996 RMK A01 T02280151  RH  062%=      5-min Rain = 0
KWA1 251657Z 31006KT 23/15 A2996 RMK A01 T02280154  RH  063%=      5-min Rain = 0
KWA1 251658Z 32005KT 23/15 A2996 RMK A01 T02280150  RH  061%=      5-min Rain = 0
KWA1 251659Z 32004KT 23/16 A2996 RMK A01 T02280155  RH  064%=      5-min Rain = 0
KWA1 251700Z 32007KT 23/16 A2996 RMK A01 T02290163  RH  066%=      5-min Rain = 0
KWA1 251701Z 31008KT 23/16 A2996 RMK A01 T02300157  RH  063%=      5-min Rain = 0
KWA1 251702Z 31007KT 23/16 A2996 RMK A01 T02300156  RH  063%=      5-min Rain = 0
KWA1 251703Z 31006KT 23/16 A2996 RMK A01 T02300162  RH  065%=      5-min Rain = 0
KWA1 251704Z 31007KT 23/16 A2996 RMK A01 T02300161  RH  065%=      5-min Rain = 0
KWA1 251705Z 31007KT 23/16 A2996 RMK A01 T02310159  RH  064%=      5-min Rain = 0
KWA1 251706Z 31006KT 23/16 A2996 RMK A01 T02310161  RH  065%=      5-min Rain = 0
KWA1 251707Z 30006KT 23/16 A2996 RMK A01 T02310159  RH  064%=      5-min Rain = 0
KWA1 251708Z 30006KT 23/16 A2996 RMK A01 T02310161  RH  064%=      5-min Rain = 0
KWA1 251709Z 30008KT 23/15 A2996 RMK A01 T02320154  RH  062%=      5-min Rain = 0
KWA1 251710Z 29007KT 23/15 A2996 RMK A01 T02320153  RH  061%=      5-min Rain = 0
KWA1 251711Z 29007KT 23/15 A2996 RMK A01 T02320154  RH  062%=      5-min Rain = 0
KWA1 251712Z 29006KT 23/16 A2996 RMK A01 T02320156  RH  062%=      5-min Rain = 0
KWA1 251713Z 31004KT 23/16 A2996 RMK A01 T02320157  RH  062%=      5-min Rain = 0
KWA1 251714Z 32007KT 23/16 A2996 RMK A01 T02340160  RH  063%=      5-min Rain = 0
KWA1 251715Z 32006KT 23/16 A2996 RMK A01 T02340162  RH  064%=      5-min Rain = 0
KWA1 251716Z 31007KT 24/16 A2996 RMK A01 T02350156  RH  061%=      5-min Rain = 0
KWA1 251717Z 31006KT 24/15 A2996 RMK A01 T02350152  RH  060%=      5-min Rain = 0
KWA1 251718Z 31005KT 23/16 A2996 RMK A01 T02340157  RH  062%=      5-min Rain = 0
KWA1 251719Z 32006KT 24/16 A2996 RMK A01 T02350159  RH  062%=      5-min Rain = 0
KWA1 251720Z 31006KT 24/16 A2996 RMK A01 T02360160  RH  062%=      5-min Rain = 0
KWA1 251721Z 32005KT 24/16 A2996 RMK A01 T02360155  RH  060%=      5-min Rain = 0
KWA1 251722Z 32005KT 24/16 A2996 RMK A01 T02360161  RH  063%=      5-min Rain = 0
KWA1 251723Z 32005KT 24/16 A2996 RMK A01 T02380159  RH  062%=      5-min Rain = 0
KWA1 251724Z 33006KT 24/17 A2996 RMK A01 T02390167  RH  064%=      5-min Rain = 0
KWA1 251725Z 32006KT 24/16 A2996 RMK A01 T02400159  RH  060%=      5-min Rain = 0
KWA1 251726Z 31007KT 24/16 A2996 RMK A01 T02390163  RH  063%=      5-min Rain = 0
KWA1 251727Z 30005KT 24/16 A2996 RMK A01 T02390156  RH  060%=      5-min Rain = 0
KWA1 251728Z 33007KT 24/16 A2996 RMK A01 T02390161  RH  061%=      5-min Rain = 0
KWA1 251729Z 33005KT 24/16 A2996 RMK A01 T02390163  RH  062%=      5-min Rain = 0
KWA1 251730Z 34006KT 24/16 A2996 RMK A01 T02390156  RH  060%=      5-min Rain = 0
KWA1 251731Z 33004KT 24/16 A2996 RMK A01 T02390155  RH  060%=      5-min Rain = 0
KWA1 251732Z 34004KT 24/16 A2996 RMK A01 T02390159  RH  061%=      5-min Rain = 0
KWA1 251733Z 34005KT 24/16 A2996 RMK A01 T02390159  RH  061%=      5-min Rain = 0
KWA1 251734Z 30005KT 24/16 A2996 RMK A01 T02400156  RH  059%=      5-min Rain = 0
KWA1 251735Z 33005KT 24/16 A2996 RMK A01 T02400159  RH  060%=      5-min Rain = 0
KWA1 251736Z 32006KT 24/16 A2996 RMK A01 T02400164  RH  062%=      5-min Rain = 0
KWA1 251737Z 31007KT 24/17 A2996 RMK A01 T02420165  RH  063%=      5-min Rain = 0
KWA1 251738Z 29007KT 24/15 A2996 RMK A01 T02430152  RH  057%=      5-min Rain = 0
KWA1 251739Z 31005KT 24/15 A2996 RMK A01 T02430152  RH  057%=      5-min Rain = 0
KWA1 251740Z 30007KT 24/16 A2996 RMK A01 T02430160  RH  060%=      5-min Rain = 0
KWA1 251741Z 29006KT 24/15 A2996 RMK A01 T02440150  RH  056%=      5-min Rain = 0
KWA1 251742Z 30005KT 24/16 A2996 RMK A01 T02440161  RH  060%=      5-min Rain = 0
KWA1 251743Z 32004KT 24/16 A2996 RMK A01 T02440158  RH  059%=      5-min Rain = 0
KWA1 251744Z 32003KT 25/16 A2996 RMK A01 T02450163  RH  060%=      5-min Rain = 0
KWA1 251745Z 31003KT 25/16 A2996 RMK A01 T02460155  RH  057%=      5-min Rain = 0
KWA1 251746Z 28003KT 25/16 A2996 RMK A01 T02470157  RH  057%=      5-min Rain = 0
KWA1 251747Z 29006KT 25/17 A2996 RMK A01 T02480171  RH  062%=      5-min Rain = 0
KWA1 251748Z 28006KT 25/16 A2996 RMK A01 T02490156  RH  056%=      5-min Rain = 0
KWA1 251749Z 28004KT 25/16 A2996 RMK A01 T02480157  RH  057%=      5-min Rain = 0
KWA1 251750Z 28004KT 25/15 A2996 RMK A01 T02470152  RH  055%=      5-min Rain = 0
KWA1 251751Z 28006KT 25/15 A2996 RMK A01 T02470151  RH  055%=      5-min Rain = 0
KWA1 251752Z 29004KT 25/15 A2996 RMK A01 T02470146  RH  053%=      5-min Rain = 0
KWA1 251753Z 29002KT 25/15 A2996 RMK A01 T02470149  RH  055%=      5-min Rain = 0
KWA1 251754Z 30002KT 25/15 A2996 RMK A01 T02470145  RH  053%=      5-min Rain = 0
KWA1 251755Z 31001KT 25/15 A2996 RMK A01 T02470145  RH  053%=      5-min Rain = 0
KWA1 251756Z 34000KT 25/15 A2996 RMK A01 T02490152  RH  055%=      5-min Rain = 0
KWA1 251757Z 34002KT 25/16 A2996 RMK A01 T02510156  RH  056%=      5-min Rain = 0
KWA1 251758Z 33003KT 25/16 A2996 RMK A01 T02510155  RH  055%=      5-min Rain = 0
KWA1 251759Z 30002KT 25/16 A2996 RMK A01 T02520163  RH  058%=      5-min Rain = 0
KWA1 251800Z 34002KT 25/17 A2996 RMK A01 T02530170  RH  060%=      5-min Rain = 0
KWA1 251801Z 34002KT 25/15 A2996 RMK A01 T02540148  RH  052%=      5-min Rain = 0
KWA1 251802Z 35002KT 25/16 A2996 RMK A01 T02530159  RH  056%=      5-min Rain = 0
KWA1 251803Z 33004KT 25/16 A2996 RMK A01 T02540156  RH  055%=      5-min Rain = 0
KWA1 251804Z 31006KT 25/14 A2996 RMK A01 T02540140  RH  049%=      5-min Rain = 0
KWA1 251805Z 34005KT 25/14 A2996 RMK A01 T02540136  RH  048%=      5-min Rain = 0
KWA1 251806Z 32008KT 25/15 A2996 RMK A01 T02530151  RH  053%=      5-min Rain = 0
KWA1 251807Z 32005KT 25/14 A2996 RMK A01 T02540140  RH  049%=      5-min Rain = 0
KWA1 251808Z 31005KT 25/14 A2996 RMK A01 T02540143  RH  050%=      5-min Rain = 0
KWA1 251809Z 29007KT 25/16 A2996 RMK A01 T02540156  RH  055%=      5-min Rain = 0
KWA1 251810Z 28006KT 26/14 A2996 RMK A01 T02550143  RH  050%=      5-min Rain = 0
KWA1 251811Z 29007KT 25/15 A2996 RMK A01 T02540153  RH  053%=      5-min Rain = 0
KWA1 251812Z 30006KT 26/15 A2996 RMK A01 T02550147  RH  051%=      5-min Rain = 0
KWA1 251813Z 30003KT 25/13 A2996 RMK A01 T02540128  RH  045%=      5-min Rain = 0
KWA1 251814Z 30004KT 25/14 A2996 RMK A01 T02540136  RH  048%=      5-min Rain = 0
KWA1 251815Z 29007KT 25/15 A2996 RMK A01 T02540150  RH  052%=      5-min Rain = 0
KWA1 251816Z 28008KT 26/15 A2996 RMK A01 T02550153  RH  053%=      5-min Rain = 0
KWA1 251817Z 27006KT 26/14 A2996 RMK A01 T02560140  RH  049%=      5-min Rain = 0
KWA1 251818Z 26005KT 26/15 A2996 RMK A01 T02560154  RH  054%=      5-min Rain = 0
KWA1 251819Z 27005KT 26/16 A2996 RMK A01 T02570157  RH  054%=      5-min Rain = 0
KWA1 251820Z 27005KT 26/14 A2996 RMK A01 T02580139  RH  048%=      5-min Rain = 0
KWA1 251821Z 27004KT 26/14 A2996 RMK A01 T02570138  RH  048%=      5-min Rain = 0
KWA1 251822Z 30004KT 26/14 A2996 RMK A01 T02560141  RH  049%=      5-min Rain = 0
KWA1 251823Z 31006KT 26/15 A2996 RMK A01 T02570145  RH  050%=      5-min Rain = 0
KWA1 251824Z 32005KT 26/14 A2996 RMK A01 T02580136  RH  047%=      5-min Rain = 0
KWA1 251825Z 32007KT 26/15 A2996 RMK A01 T02590153  RH  052%=      5-min Rain = 0
KWA1 251826Z 31007KT 26/16 A2996 RMK A01 T02600155  RH  052%=      5-min Rain = 0
KWA1 251827Z 31009KT 26/14 A2996 RMK A01 T02600141  RH  048%=      5-min Rain = 0
KWA1 251828Z 30007KT 26/14 A2996 RMK A01 T02600138  RH  047%=      5-min Rain = 0
KWA1 251829Z 30006KT 26/13 A2996 RMK A01 T02600128  RH  044%=      5-min Rain = 0
KWA1 251830Z 31005KT 26/13 A2996 RMK A01 T02600127  RH  044%=      5-min Rain = 0
KWA1 251831Z 32005KT 26/13 A2996 RMK A01 T02590125  RH  043%=      5-min Rain = 0
KWA1 251832Z 31005KT 26/13 A2996 RMK A01 T02590128  RH  044%=      5-min Rain = 0
KWA1 251833Z 30006KT 26/13 A2996 RMK A01 T02590134  RH  046%=      5-min Rain = 0
KWA1 251834Z 29007KT 26/14 A2996 RMK A01 T02590143  RH  049%=      5-min Rain = 0
KWA1 251835Z 28008KT 26/15 A2996 RMK A01 T02600146  RH  050%=      5-min Rain = 0
KWA1 251836Z 28004KT 26/14 A2996 RMK A01 T02600140  RH  047%=      5-min Rain = 0
KWA1 251837Z 26004KT 26/15 A2996 RMK A01 T02600146  RH  049%=      5-min Rain = 0
KWA1 251838Z 28003KT 26/14 A2996 RMK A01 T02610141  RH  048%=      5-min Rain = 0
KWA1 251839Z 27004KT 26/15 A2996 RMK A01 T02610149  RH  050%=      5-min Rain = 0
KWA1 251840Z 27005KT 26/13 A2996 RMK A01 T02630125  RH  042%=      5-min Rain = 0
KWA1 251841Z 27004KT 26/11 A2996 RMK A01 T02620111  RH  039%=      5-min Rain = 0
KWA1 251842Z 27004KT 26/14 A2996 RMK A01 T02620139  RH  047%=      5-min Rain = 0
KWA1 251843Z 28004KT 26/12 A2996 RMK A01 T02630117  RH  040%=      5-min Rain = 0
KWA1 251844Z 29006KT 26/13 A2996 RMK A01 T02630125  RH  043%=      5-min Rain = 0
KWA1 251845Z 30008KT 26/15 A2996 RMK A01 T02630145  RH  048%=      5-min Rain = 0
KWA1 251846Z 30006KT 26/14 A2996 RMK A01 T02640141  RH  047%=      5-min Rain = 0
KWA1 251847Z 30005KT 26/13 A2996 RMK A01 T02640131  RH  044%=      5-min Rain = 0
KWA1 251848Z 30006KT 26/13 A2996 RMK A01 T02630130  RH  044%=      5-min Rain = 0
KWA1 251849Z 31005KT 26/13 A2996 RMK A01 T02630125  RH  042%=      5-min Rain = 0
KWA1 251850Z 32004KT 26/11 A2996 RMK A01 T02630114  RH  039%=      5-min Rain = 0
KWA1 251851Z 33004KT 26/12 A2996 RMK A01 T02630115  RH  040%=      5-min Rain = 0
KWA1 251852Z 31003KT 26/13 A2996 RMK A01 T02630128  RH  043%=      5-min Rain = 0
KWA1 251853Z 31006KT 26/13 A2996 RMK A01 T02640125  RH  042%=      5-min Rain = 0
KWA1 251854Z 29005KT 26/12 A2996 RMK A01 T02640117  RH  040%=      5-min Rain = 0
KWA1 251855Z 29008KT 27/14 A2996 RMK A01 T02650137  RH  045%=      5-min Rain = 0
KWA1 251856Z 29009KT 27/14 A2996 RMK A01 T02670140  RH  046%=      5-min Rain = 0
KWA1 251857Z 29006KT 27/12 A2996 RMK A01 T02670124  RH  041%=      5-min Rain = 0
KWA1 251858Z 29005KT 27/11 A2996 RMK A01 T02650110  RH  038%=      5-min Rain = 0
KWA1 251859Z 31005KT 27/11 A2996 RMK A01 T02650114  RH  039%=      5-min Rain = 0
KWA1 251900Z 31005KT 27/11 A2996 RMK A01 T02650114  RH  039%=      5-min Rain = 0
KWA1 251901Z 30006KT 27/13 A2996 RMK A01 T02650131  RH  044%=      5-min Rain = 0
KWA1 251902Z 31007KT 27/12 A2996 RMK A01 T02660123  RH  041%=      5-min Rain = 0
KWA1 251903Z 30006KT 27/12 A2996 RMK A01 T02650118  RH  040%=      5-min Rain = 0
KWA1 251904Z 29005KT 27/12 A2996 RMK A01 T02650120  RH  041%=      5-min Rain = 0
KWA1 251905Z 29004KT 27/13 A2996 RMK A01 T02650127  RH  042%=      5-min Rain = 0
KWA1 251906Z 31008KT 27/13 A2996 RMK A01 T02650129  RH  043%=      5-min Rain = 0
KWA1 251907Z 31004KT 27/12 A2996 RMK A01 T02660117  RH  040%=      5-min Rain = 0
KWA1 251908Z 30003KT 27/11 A2996 RMK A01 T02650113  RH  039%=      5-min Rain = 0
KWA1 251909Z 33003KT 26/12 A2996 RMK A01 T02640116  RH  039%=      5-min Rain = 0
KWA1 251910Z 36003KT 27/13 A2996 RMK A01 T02650129  RH  043%=      5-min Rain = 0
KWA1 251911Z 01003KT 27/13 A2996 RMK A01 T02660127  RH  042%=      5-min Rain = 0
KWA1 251912Z 35003KT 27/13 A2996 RMK A01 T02670129  RH  043%=      5-min Rain = 0
KWA1 251913Z 34004KT 27/13 A2996 RMK A01 T02670125  RH  041%=      5-min Rain = 0
KWA1 251914Z 33003KT 27/13 A2996 RMK A01 T02670131  RH  043%=      5-min Rain = 0
KWA1 251915Z 03002KT 27/12 A2996 RMK A01 T02670123  RH  041%=      5-min Rain = 0
KWA1 251916Z 03002KT 27/11 A2996 RMK A01 T02680113  RH  038%=      5-min Rain = 0
KWA1 251917Z 03001KT 27/11 A2996 RMK A01 T02670110  RH  038%=      5-min Rain = 0
KWA1 251918Z 05001KT 27/12 A2996 RMK A01 T02670115  RH  039%=      5-min Rain = 0
KWA1 251919Z 30000KT 27/13 A2996 RMK A01 T02680128  RH  042%=      5-min Rain = 0
KWA1 251920Z 29002KT 27/13 A2996 RMK A01 T02700134  RH  043%=      5-min Rain = 0
KWA1 251921Z 29003KT 27/11 A2996 RMK A01 T02710110  RH  037%=      5-min Rain = 0
KWA1 251922Z 32001KT 27/11 A2996 RMK A01 T02700112  RH  037%=      5-min Rain = 0
KWA1 251923Z 01003KT 27/11 A2996 RMK A01 T02690110  RH  037%=      5-min Rain = 0
KWA1 251924Z 02002KT 27/12 A2996 RMK A01 T02690116  RH  038%=      5-min Rain = 0
KWA1 251925Z 31001KT 27/12 A2996 RMK A01 T02690122  RH  040%=      5-min Rain = 0
KWA1 251926Z 27002KT 27/12 A2996 RMK A01 T02700123  RH  040%=      5-min Rain = 0
KWA1 251927Z 33005KT 27/13 A2996 RMK A01 T02700130  RH  042%=      5-min Rain = 0
KWA1 251928Z 32004KT 27/14 A2996 RMK A01 T02710137  RH  044%=      5-min Rain = 0
KWA1 251929Z 31004KT 27/13 A2996 RMK A01 T02720133  RH  042%=      5-min Rain = 0
KWA1 251930Z 29005KT 27/14 A2996 RMK A01 T02730139  RH  044%=      5-min Rain = 0
KWA1 251931Z 29006KT 27/12 A2996 RMK A01 T02730115  RH  038%=      5-min Rain = 0
KWA1 251932Z 29007KT 27/13 A2996 RMK A01 T02720128  RH  041%=      5-min Rain = 0
KWA1 251933Z 29005KT 27/14 A2996 RMK A01 T02710142  RH  045%=      5-min Rain = 0
KWA1 251934Z 28006KT 27/14 A2996 RMK A01 T02720142  RH  045%=      5-min Rain = 0
KWA1 251935Z 27007KT 27/12 A2996 RMK A01 T02720120  RH  039%=      5-min Rain = 0
KWA1 251936Z 24005KT 27/10 A2996 RMK A01 T02710100  RH  034%=      5-min Rain = 0
KWA1 251937Z 27005KT 27/12 A2996 RMK A01 T02690122  RH  040%=      5-min Rain = 0
KWA1 251938Z 29004KT 27/11 A2996 RMK A01 T02700112  RH  037%=      5-min Rain = 0
KWA1 251939Z 28004KT 27/11 A2997 RMK A01 T02700110  RH  037%=      5-min Rain = 0
KWA1 251940Z 27003KT 27/11 A2997 RMK A01 T02700108  RH  036%=      5-min Rain = 0
KWA1 251941Z 28003KT 27/11 A2997 RMK A01 T02700112  RH  037%=      5-min Rain = 0
KWA1 251942Z 26003KT 27/11 A2997 RMK A01 T02710110  RH  037%=      5-min Rain = 0
KWA1 251943Z 28003KT 27/13 A2997 RMK A01 T02720125  RH  040%=      5-min Rain = 0
KWA1 251944Z 28002KT 27/12 A2997 RMK A01 T02730115  RH  037%=      5-min Rain = 0
KWA1 251945Z 25002KT 27/10 A2997 RMK A01 T02730104  RH  035%=      5-min Rain = 0
KWA1 251946Z 34001KT 27/13 A2997 RMK A01 T02730126  RH  040%=      5-min Rain = 0
KWA1 251947Z 32002KT 28/13 A2997 RMK A01 T02750128  RH  040%=      5-min Rain = 0
KWA1 251948Z 31002KT 28/12 A2997 RMK A01 T02760123  RH  039%=      5-min Rain = 0
KWA1 251949Z 31001KT 28/10 A2996 RMK A01 T02760100  RH  033%=      5-min Rain = 0
KWA1 251950Z 29002KT 28/11 A2996 RMK A01 T02760110  RH  036%=      5-min Rain = 0
KWA1 251951Z 29002KT 28/11 A2996 RMK A01 T02760111  RH  036%=      5-min Rain = 0
KWA1 251952Z 31004KT 28/12 A2996 RMK A01 T02760120  RH  038%=      5-min Rain = 0
KWA1 251953Z 34003KT 28/12 A2996 RMK A01 T02760120  RH  038%=      5-min Rain = 0
KWA1 251954Z 35003KT 28/12 A2996 RMK A01 T02760122  RH  039%=      5-min Rain = 0
KWA1 251955Z 35003KT 28/11 A2996 RMK A01 T02760107  RH  035%=      5-min Rain = 0
KWA1 251956Z 36004KT 28/13 A2996 RMK A01 T02750127  RH  040%=      5-min Rain = 0
KWA1 251957Z 36005KT 27/11 A2996 RMK A01 T02740112  RH  036%=      5-min Rain = 0
KWA1 251958Z 35003KT 27/12 A2996 RMK A01 T02730119  RH  038%=      5-min Rain = 0
KWA1 251959Z 35004KT 27/12 A2996 RMK A01 T02730122  RH  039%=      5-min Rain = 0
KWA1 252000Z 00004KT 27/12 A2996 RMK A01 T02730117  RH  038%=      5-min Rain = 0
KWA1 252001Z 36007KT 27/13 A2996 RMK A01 T02730126  RH  040%=      5-min Rain = 0
KWA1 252002Z 35006KT 27/13 A2996 RMK A01 T02730130  RH  041%=      5-min Rain = 0
KWA1 252003Z 00005KT 27/14 A2996 RMK A01 T02740138  RH  043%=      5-min Rain = 0
KWA1 252004Z 00006KT 27/14 A2996 RMK A01 T02740136  RH  043%=      5-min Rain = 0
KWA1 252005Z 02004KT 27/11 A2996 RMK A01 T02740109  RH  036%=      5-min Rain = 0
KWA1 252006Z 35004KT 27/12 A2996 RMK A01 T02740121  RH  039%=      5-min Rain = 0
KWA1 252007Z 35006KT 27/13 A2996 RMK A01 T02740134  RH  042%=      5-min Rain = 0
KWA1 252008Z 34006KT 28/14 A2996 RMK A01 T02760140  RH  043%=      5-min Rain = 0
KWA1 252009Z 35007KT 28/15 A2996 RMK A01 T02770147  RH  045%=      5-min Rain = 0
KWA1 252010Z 34010KT 28/16 A2996 RMK A01 T02790156  RH  047%=      5-min Rain = 0
KWA1 252011Z 33009KT 28/14 A2996 RMK A01 T02790141  RH  043%=      5-min Rain = 0
KWA1 252012Z 33008KT 28/13 A2996 RMK A01 T02780128  RH  040%=      5-min Rain = 0
KWA1 252013Z 34008KT 28/13 A2996 RMK A01 T02770128  RH  040%=      5-min Rain = 0
KWA1 252014Z 34007KT 28/13 A2996 RMK A01 T02770133  RH  041%=      5-min Rain = 0
KWA1 252015Z 32006KT 28/13 A2996 RMK A01 T02770125  RH  039%=      5-min Rain = 0
KWA1 252016Z 33006KT 28/12 A2996 RMK A01 T02760117  RH  037%=      5-min Rain = 0
KWA1 252017Z 34007KT 28/13 A2996 RMK A01 T02760133  RH  041%=      5-min Rain = 0
KWA1 252018Z 34008KT 28/14 A2996 RMK A01 T02770143  RH  044%=      5-min Rain = 0
KWA1 252019Z 35008KT 28/14 A2996 RMK A01 T02770139  RH  043%=      5-min Rain = 0
KWA1 252020Z 35007KT 28/12 A2996 RMK A01 T02770123  RH  039%=      5-min Rain = 0
KWA1 252021Z 34007KT 28/13 A2996 RMK A01 T02760127  RH  040%=      5-min Rain = 0
KWA1 252022Z 34008KT 28/13 A2996 RMK A01 T02760127  RH  040%=      5-min Rain = 0
KWA1 252023Z 35007KT 28/14 A2996 RMK A01 T02760135  RH  042%=      5-min Rain = 0
KWA1 252024Z 34009KT 28/14 A2996 RMK A01 T02760136  RH  042%=      5-min Rain = 0
KWA1 252025Z 33007KT 28/13 A2996 RMK A01 T02770126  RH  039%=      5-min Rain = 0
KWA1 252026Z 33008KT 28/13 A2996 RMK A01 T02760128  RH  040%=      5-min Rain = 0
KWA1 252027Z 33006KT 28/12 A2996 RMK A01 T02760116  RH  037%=      5-min Rain = 0
KWA1 252028Z 35005KT 28/12 A2996 RMK A01 T02760118  RH  037%=      5-min Rain = 0
KWA1 252029Z 35004KT 28/14 A2996 RMK A01 T02770137  RH  042%=      5-min Rain = 0
KWA1 252030Z 36004KT 28/12 A2996 RMK A01 T02770119  RH  037%=      5-min Rain = 0
KWA1 252031Z 35003KT 28/12 A2996 RMK A01 T02770116  RH  037%=      5-min Rain = 0
KWA1 252032Z 31005KT 28/12 A2996 RMK A01 T02770118  RH  037%=      5-min Rain = 0
KWA1 252033Z 31004KT 28/11 A2996 RMK A01 T02770113  RH  036%=      5-min Rain = 0
KWA1 252034Z 33003KT 28/12 A2996 RMK A01 T02770118  RH  037%=      5-min Rain = 0
KWA1 252035Z 30003KT 28/12 A2996 RMK A01 T02770124  RH  039%=      5-min Rain = 0
KWA1 252036Z 29004KT 28/13 A2996 RMK A01 T02780131  RH  040%=      5-min Rain = 0
KWA1 252037Z 29005KT 28/15 A2996 RMK A01 T02800149  RH  045%=      5-min Rain = 0
KWA1 252038Z 29007KT 28/15 A2996 RMK A01 T02820148  RH  044%=      5-min Rain = 0
KWA1 252039Z 28006KT 28/14 A2996 RMK A01 T02820144  RH  043%=      5-min Rain = 0
KWA1 252040Z 28005KT 28/13 A2996 RMK A01 T02820126  RH  038%=      5-min Rain = 0
KWA1 252041Z 29006KT 28/13 A2996 RMK A01 T02810134  RH  040%=      5-min Rain = 0
KWA1 252042Z 30007KT 28/13 A2996 RMK A01 T02810129  RH  039%=      5-min Rain = 0
KWA1 252043Z 33007G14KT 28/12 A2996 RMK A01 T02810115  RH  036%=      5-min Rain = 0
KWA1 252044Z 32007KT 28/13 A2996 RMK A01 T02790132  RH  040%=      5-min Rain = 0
KWA1 252045Z 31006KT 28/12 A2996 RMK A01 T02800120  RH  037%=      5-min Rain = 0
KWA1 252046Z 33007KT 28/15 A2996 RMK A01 T02800149  RH  045%=      5-min Rain = 0
KWA1 252047Z 34008KT 28/13 A2996 RMK A01 T02800129  RH  039%=      5-min Rain = 0
KWA1 252048Z 34007KT 28/13 A2996 RMK A01 T02800127  RH  039%=      5-min Rain = 0
KWA1 252049Z 33006KT 28/12 A2996 RMK A01 T02790120  RH  037%=      5-min Rain = 0
KWA1 252050Z 32006KT 28/12 A2996 RMK A01 T02780119  RH  037%=      5-min Rain = 0
KWA1 252051Z 31005KT 28/13 A2996 RMK A01 T02780127  RH  039%=      5-min Rain = 0
KWA1 252052Z 31006KT 28/13 A2996 RMK A01 T02790130  RH  040%=      5-min Rain = 0
KWA1 252053Z 31006KT 28/12 A2996 RMK A01 T02800119  RH  037%=      5-min Rain = 0
KWA1 252054Z 32006KT 28/13 A2996 RMK A01 T02800131  RH  040%=      5-min Rain = 0
KWA1 252055Z 33006KT 28/13 A2996 RMK A01 T02800127  RH  039%=      5-min Rain = 0
KWA1 252056Z 33005KT 28/13 A2996 RMK A01 T02800131  RH  040%=      5-min Rain = 0
KWA1 252057Z 33008KT 28/14 A2996 RMK A01 T02800136  RH  041%=      5-min Rain = 0
KWA1 252058Z 32007KT 28/13 A2996 RMK A01 T02810134  RH  041%=      5-min Rain = 0
KWA1 252059Z 32007KT 28/13 A2996 RMK A01 T02810130  RH  040%=      5-min Rain = 0
KWA1 252100Z 32007KT 28/13 A2996 RMK A01 T02810129  RH  039%=      5-min Rain = 0
KWA1 252101Z 31007KT 28/14 A2996 RMK A01 T02810140  RH  042%=      5-min Rain = 0
KWA1 252102Z 31008KT 28/13 A2996 RMK A01 T02810132  RH  040%=      5-min Rain = 0
KWA1 252103Z 32006KT 28/14 A2996 RMK A01 T02810142  RH  043%=      5-min Rain = 0
KWA1 252104Z 33008KT 28/15 A2996 RMK A01 T02820145  RH  043%=      5-min Rain = 0
KWA1 252105Z 33007KT 28/14 A2996 RMK A01 T02820139  RH  042%=      5-min Rain = 0
KWA1 252106Z 33012KT 28/15 A2996 RMK A01 T02820146  RH  044%=      5-min Rain = 0
KWA1 252107Z 33012KT 28/14 A2996 RMK A01 T02820139  RH  042%=      5-min Rain = 0
KWA1 252108Z 32012KT 28/14 A2996 RMK A01 T02810139  RH  042%=      5-min Rain = 0
KWA1 252109Z 31010KT 28/14 A2996 RMK A01 T02810136  RH  041%=      5-min Rain = 0
KWA1 252110Z 30011KT 28/14 A2995 RMK A01 T02800137  RH  042%=      5-min Rain = 0
KWA1 252111Z 31010KT 28/14 A2995 RMK A01 T02800139  RH  042%=      5-min Rain = 0
KWA1 252112Z 32007KT 28/13 A2995 RMK A01 T02800130  RH  040%=      5-min Rain = 0
KWA1 252113Z 32008KT 28/15 A2995 RMK A01 T02800145  RH  044%=      5-min Rain = 0
KWA1 252114Z 31009KT 28/15 A2995 RMK A01 T02800146  RH  044%=      5-min Rain = 0
KWA1 252115Z 33011G16KT 28/14 A2995 RMK A01 T02810139  RH  042%=      5-min Rain = 0
KWA1 252116Z 32007KT 28/14 A2995 RMK A01 T02810139  RH  042%=      5-min Rain = 0
KWA1 252117Z 31007KT 28/15 A2995 RMK A01 T02810148  RH  044%=      5-min Rain = 0
KWA1 252118Z 30007KT 28/14 A2995 RMK A01 T02810142  RH  043%=      5-min Rain = 0
KWA1 252119Z 31006KT 28/14 A2995 RMK A01 T02820138  RH  041%=      5-min Rain = 0
KWA1 252120Z 32009KT 28/14 A2995 RMK A01 T02820135  RH  041%=      5-min Rain = 0
KWA1 252121Z 31009KT 28/13 A2995 RMK A01 T02820129  RH  039%=      5-min Rain = 0
KWA1 252122Z 31008KT 28/13 A2995 RMK A01 T02820133  RH  040%=      5-min Rain = 0
KWA1 252123Z 31007KT 28/13 A2995 RMK A01 T02820127  RH  038%=      5-min Rain = 0
KWA1 252124Z 31007KT 28/13 A2995 RMK A01 T02820129  RH  039%=      5-min Rain = 0
KWA1 252125Z 31007KT 28/13 A2995 RMK A01 T02820131  RH  040%=      5-min Rain = 0
KWA1 252126Z 31007KT 28/14 A2995 RMK A01 T02820136  RH  041%=      5-min Rain = 0
KWA1 252127Z 31007KT 28/14 A2995 RMK A01 T02820139  RH  041%=      5-min Rain = 0
KWA1 252128Z 31006KT 28/15 A2995 RMK A01 T02830152  RH  045%=      5-min Rain = 0
KWA1 252129Z 32006KT 28/12 A2995 RMK A01 T02830121  RH  037%=      5-min Rain = 0
KWA1 252130Z 33006KT 28/14 A2995 RMK A01 T02830139  RH  041%=      5-min Rain = 0
KWA1 252131Z 34004KT 28/11 A2996 RMK A01 T02830107  RH  034%=      5-min Rain = 0
KWA1 252132Z 32004KT 28/13 A2996 RMK A01 T02820130  RH  039%=      5-min Rain = 0
KWA1 252133Z 32004KT 28/11 A2996 RMK A01 T02820113  RH  035%=      5-min Rain = 0
KWA1 252134Z 31005KT 28/14 A2996 RMK A01 T02830135  RH  040%=      5-min Rain = 0
KWA1 252135Z 32005KT 28/13 A2996 RMK A01 T02830130  RH  039%=      5-min Rain = 0
KWA1 252136Z 33004KT 28/14 A2996 RMK A01 T02840139  RH  041%=      5-min Rain = 0
KWA1 252137Z 33004KT 28/13 A2996 RMK A01 T02840129  RH  039%=      5-min Rain = 0
KWA1 252138Z 32006KT 28/14 A2996 RMK A01 T02840135  RH  040%=      5-min Rain = 0
KWA1 252139Z 32005KT 28/13 A2996 RMK A01 T02840125  RH  037%=      5-min Rain = 0
KWA1 252140Z 31005KT 28/12 A2996 RMK A01 T02840123  RH  037%=      5-min Rain = 0
KWA1 252141Z 32004KT 28/15 A2996 RMK A01 T02840147  RH  043%=      5-min Rain = 0
KWA1 252142Z 33004KT 29/15 A2996 RMK A01 T02850152  RH  044%=      5-min Rain = 0
KWA1 252143Z 33005KT 29/13 A2996 RMK A01 T02850126  RH  037%=      5-min Rain = 0
KWA1 252144Z 32007KT 29/14 A2996 RMK A01 T02850138  RH  041%=      5-min Rain = 0
KWA1 252145Z 32006KT 29/12 A2996 RMK A01 T02850120  RH  036%=      5-min Rain = 0
KWA1 252146Z 33005KT 28/12 A2996 RMK A01 T02840117  RH  036%=      5-min Rain = 0
KWA1 252147Z 32007KT 28/14 A2996 RMK A01 T02840139  RH  041%=      5-min Rain = 0
KWA1 252148Z 31007KT 28/15 A2996 RMK A01 T02840146  RH  043%=      5-min Rain = 0
KWA1 252149Z 30007KT 28/13 A2996 RMK A01 T02840132  RH  039%=      5-min Rain = 0
KWA1 252150Z 32006KT 28/14 A2996 RMK A01 T02840135  RH  040%=      5-min Rain = 0
KWA1 252151Z 01005KT 28/13 A2996 RMK A01 T02840129  RH  038%=      5-min Rain = 0
KWA1 252152Z 01004KT 28/14 A2996 RMK A01 T02840135  RH  040%=      5-min Rain = 0
KWA1 252153Z 01003KT 28/12 A2996 RMK A01 T02840119  RH  036%=      5-min Rain = 0
KWA1 252154Z 01002KT 28/12 A2996 RMK A01 T02830118  RH  036%=      5-min Rain = 0
KWA1 252155Z 03003KT 28/13 A2996 RMK A01 T02830129  RH  039%=      5-min Rain = 0
KWA1 252156Z 04005KT 28/15 A2996 RMK A01 T02840151  RH  044%=      5-min Rain = 0
KWA1 252157Z 00006KT 28/15 A2996 RMK A01 T02840148  RH  044%=      5-min Rain = 0
KWA1 252158Z 01005KT 28/14 A2996 RMK A01 T02840137  RH  041%=      5-min Rain = 0
KWA1 252159Z 01004KT 28/13 A2996 RMK A01 T02840127  RH  038%=      5-min Rain = 0
KWA1 252200Z 00004KT 28/14 A2996 RMK A01 T02840135  RH  040%=      5-min Rain = 0
KWA1 252201Z 35004KT 28/12 A2996 RMK A01 T02840120  RH  036%=      5-min Rain = 0
KWA1 252202Z 35007KT 28/14 A2996 RMK A01 T02840135  RH  040%=      5-min Rain = 0
KWA1 252203Z 34007KT 28/13 A2996 RMK A01 T02840132  RH  039%=      5-min Rain = 0
KWA1 252204Z 32007KT 28/14 A2996 RMK A01 T02840139  RH  041%=      5-min Rain = 0
KWA1 252205Z 32005KT 28/12 A2996 RMK A01 T02840123  RH  037%=      5-min Rain = 0
KWA1 252206Z 33004KT 28/11 A2996 RMK A01 T02840112  RH  034%=      5-min Rain = 0
KWA1 252207Z 31004KT 28/12 A2996 RMK A01 T02840123  RH  037%=      5-min Rain = 0
KWA1 252208Z 31004KT 28/12 A2996 RMK A01 T02840118  RH  036%=      5-min Rain = 0
KWA1 252209Z 32004KT 29/12 A2996 RMK A01 T02850124  RH  037%=      5-min Rain = 0
KWA1 252210Z 34003KT 29/14 A2996 RMK A01 T02850137  RH  040%=      5-min Rain = 0
KWA1 252211Z 35002KT 29/14 A2996 RMK A01 T02860144  RH  042%=      5-min Rain = 0
KWA1 252212Z 34003KT 29/13 A2996 RMK A01 T02860129  RH  038%=      5-min Rain = 0
KWA1 252213Z 35005KT 29/13 A2996 RMK A01 T02860126  RH  037%=      5-min Rain = 0
KWA1 252214Z 33006KT 29/13 A2996 RMK A01 T02860134  RH  039%=      5-min Rain = 0
KWA1 252215Z 34006KT 29/13 A2996 RMK A01 T02860125  RH  037%=      5-min Rain = 0
KWA1 252216Z 33005KT 29/13 A2996 RMK A01 T02850125  RH  037%=      5-min Rain = 0
KWA1 252217Z 35004KT 29/13 A2996 RMK A01 T02850128  RH  038%=      5-min Rain = 0
KWA1 252218Z 00005KT 29/13 A2996 RMK A01 T02850128  RH  038%=      5-min Rain = 0
KWA1 252219Z 01005KT 29/12 A2996 RMK A01 T02850123  RH  037%=      5-min Rain = 0
KWA1 252220Z 01003KT 28/12 A2996 RMK A01 T02840124  RH  037%=      5-min Rain = 0
KWA1 252221Z 01002KT 28/12 A2996 RMK A01 T02840121  RH  036%=      5-min Rain = 0
KWA1 252222Z 01003KT 28/12 A2996 RMK A01 T02840122  RH  037%=      5-min Rain = 0
KWA1 252223Z 01002KT 29/13 A2996 RMK A01 T02850125  RH  037%=      5-min Rain = 0
KWA1 252224Z 02002KT 29/14 A2996 RMK A01 T02850135  RH  040%=      5-min Rain = 0
KWA1 252225Z 02002KT 29/13 A2996 RMK A01 T02850126  RH  037%=      5-min Rain = 0
KWA1 252226Z 35001KT 29/13 A2996 RMK A01 T02860134  RH  039%=      5-min Rain = 0
KWA1 252227Z 03002KT 29/14 A2996 RMK A01 T02870138  RH  040%=      5-min Rain = 0
KWA1 252228Z 02004KT 29/13 A2996 RMK A01 T02870133  RH  039%=      5-min Rain = 0
KWA1 252229Z 01003KT 29/13 A2996 RMK A01 T02870134  RH  039%=      5-min Rain = 0
KWA1 252230Z 03002KT 29/14 A2996 RMK A01 T02870136  RH  039%=      5-min Rain = 0
KWA1 252231Z 03003KT 29/14 A2996 RMK A01 T02870139  RH  040%=      5-min Rain = 0
KWA1 252232Z 02002KT 29/14 A2996 RMK A01 T02870140  RH  041%=      5-min Rain = 0
KWA1 252233Z 00003KT 29/14 A2996 RMK A01 T02870138  RH  040%=      5-min Rain = 0
KWA1 252234Z 03006KT 29/16 A2996 RMK A01 T02870160  RH  046%=      5-min Rain = 0
KWA1 252235Z 05007KT 29/16 A2996 RMK A01 T02860157  RH  046%=      5-min Rain = 0
KWA1 252236Z 05007KT 28/15 A2996 RMK A01 T02840149  RH  044%=      5-min Rain = 0
KWA1 252237Z 05007KT 28/15 A2996 RMK A01 T02820153  RH  046%=      5-min Rain = 0
KWA1 252238Z 05008KT 28/14 A2996 RMK A01 T02820143  RH  043%=      5-min Rain = 0
KWA1 252239Z 04005KT 28/15 A2996 RMK A01 T02810148  RH  044%=      5-min Rain = 0
KWA1 252240Z 04005KT 28/14 A2996 RMK A01 T02800143  RH  043%=      5-min Rain = 0
KWA1 252241Z 04005KT 28/15 A2996 RMK A01 T02810150  RH  045%=      5-min Rain = 0
KWA1 252242Z 05006KT 28/15 A2997 RMK A01 T02800146  RH  044%=      5-min Rain = 0
KWA1 252243Z 06006KT 28/14 A2997 RMK A01 T02810138  RH  042%=      5-min Rain = 0
KWA1 252244Z 06006KT 28/14 A2997 RMK A01 T02810139  RH  042%=      5-min Rain = 0
KWA1 252245Z 06005KT 28/14 A2997 RMK A01 T02810135  RH  041%=      5-min Rain = 0
KWA1 252246Z 06006KT 28/15 A2997 RMK A01 T02810148  RH  044%=      5-min Rain = 0
KWA1 252247Z 05005KT 28/15 A2997 RMK A01 T02800147  RH  044%=      5-min Rain = 0
KWA1 252248Z 06004KT 28/14 A2997 RMK A01 T02800139  RH  042%=      5-min Rain = 0
KWA1 252249Z 05003KT 28/12 A2997 RMK A01 T02800123  RH  038%=      5-min Rain = 0
KWA1 252250Z 04002KT 28/13 A2997 RMK A01 T02800132  RH  040%=      5-min Rain = 0
KWA1 252251Z 04002KT 28/12 A2997 RMK A01 T02810122  RH  037%=      5-min Rain = 0
KWA1 252252Z 04001KT 28/12 A2997 RMK A01 T02810117  RH  036%=      5-min Rain = 0
KWA1 252253Z 07002KT 28/13 A2997 RMK A01 T02820129  RH  039%=      5-min Rain = 0
KWA1 252254Z 06002KT 28/13 A2997 RMK A01 T02820127  RH  038%=      5-min Rain = 0
KWA1 252255Z 07003KT 28/13 A2997 RMK A01 T02820126  RH  038%=      5-min Rain = 0
KWA1 252256Z 07004KT 28/14 A2997 RMK A01 T02820137  RH  041%=      5-min Rain = 0
KWA1 252257Z 08004KT 28/13 A2997 RMK A01 T02820134  RH  040%=      5-min Rain = 0
KWA1 252258Z 06006KT 28/14 A2997 RMK A01 T02810143  RH  043%=      5-min Rain = 0
KWA1 252259Z 06007KT 28/14 A2997 RMK A01 T02810142  RH  043%=      5-min Rain = 0
KWA1 252300Z 05007KT 28/15 A2997 RMK A01 T02800149  RH  045%=      5-min Rain = 0
KWA1 252301Z 05005KT 28/13 A2997 RMK A01 T02800130  RH  040%=      5-min Rain = 0
KWA1 252302Z 05005KT 28/13 A2997 RMK A01 T02800133  RH  041%=      5-min Rain = 0
KWA1 252303Z 04005KT 28/14 A2997 RMK A01 T02800142  RH  043%=      5-min Rain = 0
KWA1 252304Z 03005KT 28/14 A2997 RMK A01 T02800136  RH  041%=      5-min Rain = 0
KWA1 252305Z 03004KT 28/13 A2997 RMK A01 T02800130  RH  040%=      5-min Rain = 0
KWA1 252306Z 05003KT 28/13 A2997 RMK A01 T02800130  RH  039%=      5-min Rain = 0
KWA1 252307Z 04003KT 28/13 A2997 RMK A01 T02810128  RH  039%=      5-min Rain = 0
KWA1 252308Z 05003KT 28/14 A2997 RMK A01 T02810139  RH  042%=      5-min Rain = 0
KWA1 252309Z 06003KT 28/13 A2997 RMK A01 T02810126  RH  038%=      5-min Rain = 0
KWA1 252310Z 07002KT 28/12 A2997 RMK A01 T02820118  RH  036%=      5-min Rain = 0
KWA1 252311Z 07001KT 28/12 A2997 RMK A01 T02820124  RH  038%=      5-min Rain = 0
KWA1 252312Z 14000KT 28/12 A2997 RMK A01 T02820119  RH  036%=      5-min Rain = 0
KWA1 252313Z 00000KT 28/12 A2997 RMK A01 T02820117  RH  036%=      5-min Rain = 0
KWA1 252314Z 08000KT 28/13 A2997 RMK A01 T02840134  RH  040%=      5-min Rain = 0
KWA1 252315Z 06002KT 29/12 A2997 RMK A01 T02850123  RH  037%=      5-min Rain = 0
KWA1 252316Z 06003KT 29/13 A2997 RMK A01 T02860126  RH  037%=      5-min Rain = 0
KWA1 252317Z 06005KT 29/14 A2997 RMK A01 T02850143  RH  042%=      5-min Rain = 0
KWA1 252318Z 07007KT 28/15 A2997 RMK A01 T02830152  RH  045%=      5-min Rain = 0
KWA1 252319Z 06006KT 28/15 A2997 RMK A01 T02810146  RH  044%=      5-min Rain = 0
KWA1 252320Z 06005KT 28/13 A2997 RMK A01 T02800133  RH  040%=      5-min Rain = 0
KWA1 252321Z 06005KT 28/14 A2997 RMK A01 T02790141  RH  043%=      5-min Rain = 0
KWA1 252322Z 06003KT 28/13 A2997 RMK A01 T02790133  RH  041%=      5-min Rain = 0
KWA1 252323Z 07003KT 28/13 A2997 RMK A01 T02790134  RH  041%=      5-min Rain = 0
KWA1 252324Z 09004KT 28/16 A2997 RMK A01 T02790158  RH  048%=      5-min Rain = 0
KWA1 252325Z 08004KT 28/15 A2997 RMK A01 T02790154  RH  047%=      5-min Rain = 0
KWA1 252326Z 10005KT 28/15 A2997 RMK A01 T02790149  RH  045%=      5-min Rain = 0
KWA1 252327Z 09005KT 28/15 A2997 RMK A01 T02790149  RH  045%=      5-min Rain = 0
KWA1 252328Z 10004KT 28/17 A2997 RMK A01 T02790171  RH  052%=      5-min Rain = 0
KWA1 252329Z 10005KT 28/16 A2997 RMK A01 T02780159  RH  048%=      5-min Rain = 0
KWA1 252330Z 09006KT 28/15 A2997 RMK A01 T02780153  RH  047%=      5-min Rain = 0
KWA1 252331Z 09006KT 28/14 A2997 RMK A01 T02770140  RH  043%=      5-min Rain = 0
KWA1 252332Z 10006KT 28/15 A2997 RMK A01 T02770147  RH  045%=      5-min Rain = 0
KWA1 252333Z 10005KT 28/15 A2998 RMK A01 T02770149  RH  045%=      5-min Rain = 0
KWA1 252334Z 09004KT 28/16 A2998 RMK A01 T02760162  RH  050%=      5-min Rain = 0
KWA1 252335Z 09005KT 28/15 A2998 RMK A01 T02760145  RH  045%=      5-min Rain = 0
KWA1 252336Z 09005KT 28/15 A2998 RMK A01 T02760150  RH  046%=      5-min Rain = 0
KWA1 252337Z 07006KT 28/15 A2998 RMK A01 T02760150  RH  046%=      5-min Rain = 0
KWA1 252338Z 07004KT 28/13 A2998 RMK A01 T02760125  RH  039%=      5-min Rain = 0
KWA1 252339Z 08003KT 28/12 A2998 RMK A01 T02770121  RH  038%=      5-min Rain = 0
KWA1 252340Z 08004KT 28/15 A2998 RMK A01 T02780147  RH  045%=      5-min Rain = 0
KWA1 252341Z 08004KT 28/16 A2998 RMK A01 T02770161  RH  049%=      5-min Rain = 0
KWA1 252342Z 09005KT 28/16 A2998 RMK A01 T02770162  RH  050%=      5-min Rain = 0
KWA1 252343Z 09006KT 28/15 A2998 RMK A01 T02760150  RH  046%=      5-min Rain = 0
KWA1 252344Z 09005KT 28/15 A2998 RMK A01 T02750146  RH  045%=      5-min Rain = 0
KWA1 252345Z 08004KT 28/14 A2998 RMK A01 T02750144  RH  045%=      5-min Rain = 0
KWA1 252346Z 09003KT 28/14 A2998 RMK A01 T02750142  RH  044%=      5-min Rain = 0
KWA1 252347Z 09003KT 28/15 A2998 RMK A01 T02750147  RH  046%=      5-min Rain = 0
KWA1 252348Z 09003KT 28/14 A2998 RMK A01 T02750143  RH  044%=      5-min Rain = 0
KWA1 252349Z 08004KT 28/15 A2998 RMK A01 T02760148  RH  046%=      5-min Rain = 0
KWA1 252350Z 09005KT 28/14 A2998 RMK A01 T02760136  RH  042%=      5-min Rain = 0
KWA1 252351Z 08004KT 28/13 A2998 RMK A01 T02760128  RH  040%=      5-min Rain = 0
KWA1 252352Z 07004KT 28/14 A2998 RMK A01 T02760137  RH  042%=      5-min Rain = 0
KWA1 252353Z 08004KT 28/13 A2998 RMK A01 T02760129  RH  040%=      5-min Rain = 0
KWA1 252354Z 09004KT 28/15 A2998 RMK A01 T02760145  RH  045%=      5-min Rain = 0
KWA1 252355Z 09004KT 28/16 A2998 RMK A01 T02760159  RH  049%=      5-min Rain = 0
KWA1 252356Z 09004KT 28/16 A2998 RMK A01 T02750161  RH  050%=      5-min Rain = 0
KWA1 252357Z 09004KT 27/15 A2998 RMK A01 T02740148  RH  046%=      5-min Rain = 0
KWA1 252358Z 08005KT 27/15 A2998 RMK A01 T02740150  RH  047%=      5-min Rain = 0
KWA1 252359Z 07006KT 27/15 A2999 RMK A01 T02740151  RH  047%=      5-min Rain = 0
KWA1 260000Z 06006KT 27/15 A2999 RMK A01 T02730151  RH  047%=      5-min Rain = 0
KWA1 260001Z 08005KT 27/14 A2999 RMK A01 T02730142  RH  045%=      5-min Rain = 0
KWA1 260002Z 08006KT 27/16 A2999 RMK A01 T02730157  RH  049%=      5-min Rain = 0
KWA1 260003Z 08006KT 27/17 A2999 RMK A01 T02710165  RH  052%=      5-min Rain = 0
KWA1 260004Z 07007KT 27/17 A2999 RMK A01 T02690166  RH  053%=      5-min Rain = 0
KWA1 260005Z 07006KT 27/17 A2999 RMK A01 T02680167  RH  054%=      5-min Rain = 0
KWA1 260006Z 07006KT 27/17 A2999 RMK A01 T02670167  RH  054%=      5-min Rain = 0
KWA1 260007Z 07006KT 27/17 A2999 RMK A01 T02660168  RH  055%=      5-min Rain = 0
KWA1 260008Z 07006KT 27/16 A2999 RMK A01 T02650164  RH  054%=      5-min Rain = 0
KWA1 260009Z 07006KT 27/17 A2999 RMK A01 T02650169  RH  055%=      5-min Rain = 0
KWA1 260010Z 08006KT 27/17 A2999 RMK A01 T02650170  RH  056%=      5-min Rain = 0
KWA1 260011Z 08005KT 26/17 A2999 RMK A01 T02640171  RH  056%=      5-min Rain = 0
KWA1 260012Z 09005KT 26/17 A2999 RMK A01 T02640171  RH  057%=      5-min Rain = 0
KWA1 260013Z 09005KT 26/18 A2999 RMK A01 T02640175  RH  058%=      5-min Rain = 0
KWA1 260014Z 08005KT 26/17 A2999 RMK A01 T02630173  RH  058%=      5-min Rain = 0
KWA1 260015Z 09004KT 26/17 A2999 RMK A01 T02630174  RH  058%=      5-min Rain = 0
KWA1 260016Z 09005KT 26/18 A2999 RMK A01 T02630180  RH  060%=      5-min Rain = 0
KWA1 260017Z 09005KT 26/17 A2999 RMK A01 T02620172  RH  057%=      5-min Rain = 0
KWA1 260018Z 09005KT 26/17 A2999 RMK A01 T02620170  RH  057%=      5-min Rain = 0
KWA1 260019Z 09005KT 26/17 A2999 RMK A01 T02630173  RH  058%=      5-min Rain = 0
KWA1 260020Z 09005KT 26/18 A2999 RMK A01 T02620176  RH  059%=      5-min Rain = 0
KWA1 260021Z 09005KT 26/18 A2999 RMK A01 T02610181  RH  061%=      5-min Rain = 0
KWA1 260022Z 09005KT 26/18 A2999 RMK A01 T02600176  RH  060%=      5-min Rain = 0
KWA1 260023Z 09005KT 26/17 A2999 RMK A01 T02600173  RH  059%=      5-min Rain = 0
KWA1 260024Z 09005KT 26/17 A2999 RMK A01 T02600172  RH  058%=      5-min Rain = 0
KWA1 260025Z 09005KT 26/18 A2999 RMK A01 T02600176  RH  060%=      5-min Rain = 0
KWA1 260026Z 09004KT 26/18 A2999 RMK A01 T02590180  RH  062%=      5-min Rain = 0
KWA1 260027Z 09004KT 26/18 A2999 RMK A01 T02590180  RH  062%=      5-min Rain = 0
KWA1 260028Z 09004KT 26/18 A2999 RMK A01 T02580181  RH  062%=      5-min Rain = 0
KWA1 260029Z 09005KT 26/18 A2999 RMK A01 T02580181  RH  062%=      5-min Rain = 0
KWA1 260030Z 09004KT 26/18 A2999 RMK A01 T02570178  RH  062%=      5-min Rain = 0
KWA1 260031Z 10004KT 26/18 A2999 RMK A01 T02570181  RH  063%=      5-min Rain = 0
KWA1 260032Z 10004KT 26/18 A2999 RMK A01 T02570183  RH  064%=      5-min Rain = 0
KWA1 260033Z 10004KT 26/18 A2999 RMK A01 T02560181  RH  063%=      5-min Rain = 0
KWA1 260034Z 10004KT 26/17 A2999 RMK A01 T02560174  RH  061%=      5-min Rain = 0
KWA1 260035Z 10004KT 26/17 A2999 RMK A01 T02560171  RH  059%=      5-min Rain = 0
KWA1 260036Z 10004KT 26/17 A30 RMK A01 T02570167  RH  057%=      5-min Rain = 0
KWA1 260037Z 10004KT 26/17 A30 RMK A01 T02580169  RH  058%=      5-min Rain = 0
KWA1 260038Z 10004KT 26/17 A30 RMK A01 T02580169  RH  058%=      5-min Rain = 0
KWA1 260039Z 11004KT 26/17 A30 RMK A01 T02580168  RH  057%=      5-min Rain = 0
KWA1 260040Z 11004KT 26/17 A30 RMK A01 T02580166  RH  057%=      5-min Rain = 0
KWA1 260041Z 11004KT 26/17 A30 RMK A01 T02580166  RH  057%=      5-min Rain = 0
KWA1 260042Z 10004KT 26/17 A30 RMK A01 T02580168  RH  057%=      5-min Rain = 0
KWA1 260043Z 10004KT 26/16 A30 RMK A01 T02580163  RH  056%=      5-min Rain = 0
KWA1 260044Z 10004KT 26/16 A30 RMK A01 T02580163  RH  056%=      5-min Rain = 0
KWA1 260045Z 10004KT 26/17 A30 RMK A01 T02580167  RH  057%=      5-min Rain = 0
KWA1 260046Z 10004KT 26/16 A30 RMK A01 T02570164  RH  056%=      5-min Rain = 0
KWA1 260047Z 11004KT 26/17 A30 RMK A01 T02570165  RH  057%=      5-min Rain = 0
KWA1 260048Z 11004KT 26/17 A30 RMK A01 T02570167  RH  058%=      5-min Rain = 0
KWA1 260049Z 10004KT 26/16 A30 RMK A01 T02560164  RH  057%=      5-min Rain = 0
KWA1 260050Z 11004KT 26/16 A30 RMK A01 T02560163  RH  056%=      5-min Rain = 0
KWA1 260051Z 11004KT 26/16 A30 RMK A01 T02560163  RH  056%=      5-min Rain = 0
KWA1 260052Z 11004KT 26/17 A30 RMK A01 T02560165  RH  057%=      5-min Rain = 0
KWA1 260053Z 11004KT 26/16 A30 RMK A01 T02550158  RH  055%=      5-min Rain = 0
KWA1 260054Z 10004KT 26/16 A30 RMK A01 T02560161  RH  056%=      5-min Rain = 0
KWA1 260055Z 10004KT 26/16 A30 RMK A01 T02560160  RH  056%=      5-min Rain = 0
KWA1 260056Z 11004KT 26/16 A30 RMK A01 T02550162  RH  056%=      5-min Rain = 0
KWA1 260057Z 10004KT 26/16 A30 RMK A01 T02550161  RH  056%=      5-min Rain = 0
KWA1 260058Z 10005KT 26/16 A30 RMK A01 T02550157  RH  055%=      5-min Rain = 0
KWA1 260059Z 11004KT 26/16 A30 RMK A01 T02550155  RH  054%=      5-min Rain = 0
KWA1 260100Z 11004KT 26/16 A30 RMK A01 T02550157  RH  055%=      5-min Rain = 0
KWA1 260101Z 11004KT 26/16 A30 RMK A01 T02550161  RH  056%=      5-min Rain = 0
KWA1 260102Z 11004KT 25/17 A30 RMK A01 T02540167  RH  059%=      5-min Rain = 0
KWA1 260103Z 11004KT 25/17 A30 RMK A01 T02520168  RH  060%=      5-min Rain = 0
KWA1 260104Z 12004KT 25/17 A30 RMK A01 T02500170  RH  061%=      5-min Rain = 0
KWA1 260105Z 11004KT 25/18 A30 RMK A01 T02490175  RH  063%=      5-min Rain = 0
KWA1 260106Z 11004KT 25/18 A30 RMK A01 T02470178  RH  065%=      5-min Rain = 0
KWA1 260107Z 12004KT 25/18 A30 RMK A01 T02470182  RH  067%=      5-min Rain = 0
KWA1 260108Z 12004KT 25/19 A3001 RMK A01 T02450189  RH  071%=      5-min Rain = 0
KWA1 260109Z 12004KT 24/19 A3001 RMK A01 T02430185  RH  070%=      5-min Rain = 0
KWA1 260110Z 12004KT 24/18 A3001 RMK A01 T02420183  RH  070%=      5-min Rain = 0
KWA1 260111Z 12004KT 24/19 A3001 RMK A01 T02410186  RH  071%=      5-min Rain = 0
KWA1 260112Z 11004KT 24/18 A3001 RMK A01 T02400184  RH  071%=      5-min Rain = 0
KWA1 260113Z 11004KT 24/18 A3001 RMK A01 T02400182  RH  070%=      5-min Rain = 0
KWA1 260114Z 11004KT 24/18 A3001 RMK A01 T02390178  RH  069%=      5-min Rain = 0
KWA1 260115Z 11004KT 24/18 A3001 RMK A01 T02390175  RH  067%=      5-min Rain = 0
KWA1 260116Z 11004KT 24/17 A3001 RMK A01 T02390171  RH  066%=      5-min Rain = 0
KWA1 260117Z 11004KT 24/17 A3001 RMK A01 T02400168  RH  064%=      5-min Rain = 0
KWA1 260118Z 10004KT 24/17 A3001 RMK A01 T02410167  RH  063%=      5-min Rain = 0
KWA1 260119Z 10004KT 24/17 A3001 RMK A01 T02410167  RH  063%=      5-min Rain = 0
KWA1 260120Z 10005KT 24/17 A3001 RMK A01 T02420165  RH  062%=      5-min Rain = 0
KWA1 260121Z 10005KT 24/17 A3001 RMK A01 T02420166  RH  063%=      5-min Rain = 0
KWA1 260122Z 10005KT 24/17 A3001 RMK A01 T02430166  RH  062%=      5-min Rain = 0
KWA1 260123Z 10004KT 24/17 A3002 RMK A01 T02420165  RH  062%=      5-min Rain = 0
KWA1 260124Z 10004KT 24/17 A3002 RMK A01 T02420168  RH  063%=      5-min Rain = 0
KWA1 260125Z 10004KT 24/17 A3002 RMK A01 T02410168  RH  063%=      5-min Rain = 0
KWA1 260126Z 10004KT 24/17 A3002 RMK A01 T02410168  RH  064%=      5-min Rain = 0
KWA1 260127Z 10004KT 24/17 A3002 RMK A01 T02400167  RH  064%=      5-min Rain = 0
KWA1 260128Z 10004KT 24/17 A3002 RMK A01 T02400167  RH  064%=      5-min Rain = 0
KWA1 260129Z 11004KT 24/17 A3002 RMK A01 T02400166  RH  063%=      5-min Rain = 0
KWA1 260130Z 10003KT 24/17 A3002 RMK A01 T02400166  RH  063%=      5-min Rain = 0
KWA1 260131Z 10004KT 24/17 A3002 RMK A01 T02400168  RH  064%=      5-min Rain = 0
KWA1 260132Z 10004KT 24/17 A3002 RMK A01 T02390166  RH  064%=      5-min Rain = 0
KWA1 260133Z 10004KT 24/17 A3002 RMK A01 T02390166  RH  064%=      5-min Rain = 0
KWA1 260134Z 10004KT 24/17 A3002 RMK A01 T02380167  RH  064%=      5-min Rain = 0
KWA1 260135Z 10005KT 24/17 A3002 RMK A01 T02370167  RH  065%=      5-min Rain = 0
KWA1 260136Z 10004KT 24/17 A3002 RMK A01 T02370166  RH  064%=      5-min Rain = 0
KWA1 260137Z 11004KT 24/17 A3002 RMK A01 T02360168  RH  065%=      5-min Rain = 0
KWA1 260138Z 11004KT 24/17 A3002 RMK A01 T02350168  RH  066%=      5-min Rain = 0
KWA1 260139Z 11004KT 23/17 A3002 RMK A01 T02340169  RH  067%=      5-min Rain = 0
KWA1 260140Z 11004KT 23/17 A3002 RMK A01 T02330171  RH  068%=      5-min Rain = 0
KWA1 260141Z 11004KT 23/17 A3002 RMK A01 T02320170  RH  068%=      5-min Rain = 0
KWA1 260142Z 11004KT 23/17 A3002 RMK A01 T02310172  RH  069%=      5-min Rain = 0
KWA1 260143Z 11004KT 23/17 A3002 RMK A01 T02310173  RH  070%=      5-min Rain = 0
KWA1 260144Z 12004KT 23/17 A3002 RMK A01 T02290173  RH  071%=      5-min Rain = 0
KWA1 260145Z 12004KT 23/18 A3003 RMK A01 T02280175  RH  072%=      5-min Rain = 0
KWA1 260146Z 12004KT 23/18 A3003 RMK A01 T02270175  RH  073%=      5-min Rain = 0
KWA1 260147Z 13004KT 23/17 A3003 RMK A01 T02260174  RH  072%=      5-min Rain = 0
KWA1 260148Z 13004KT 23/18 A3003 RMK A01 T02250175  RH  073%=      5-min Rain = 0
KWA1 260149Z 13004KT 23/18 A3003 RMK A01 T02250177  RH  075%=      5-min Rain = 0
KWA1 260150Z 12004KT 22/18 A3003 RMK A01 T02240176  RH  074%=      5-min Rain = 0
KWA1 260151Z 11004KT 22/18 A3003 RMK A01 T02240175  RH  074%=      5-min Rain = 0
KWA1 260152Z 11004KT 22/17 A3003 RMK A01 T02230171  RH  072%=      5-min Rain = 0
KWA1 260153Z 11004KT 22/17 A3003 RMK A01 T02240169  RH  071%=      5-min Rain = 0
KWA1 260154Z 10004KT 23/17 A3003 RMK A01 T02250168  RH  070%=      5-min Rain = 0
KWA1 260155Z 10005KT 23/17 A3003 RMK A01 T02250168  RH  070%=      5-min Rain = 0
KWA1 260156Z 10005KT 23/16 A3003 RMK A01 T02250163  RH  068%=      5-min Rain = 0
KWA1 260157Z 10005KT 23/16 A3003 RMK A01 T02250159  RH  066%=      5-min Rain = 0
KWA1 260158Z 10005KT 23/16 A3003 RMK A01 T02250157  RH  065%=      5-min Rain = 0
KWA1 260159Z 10005KT 23/16 A3003 RMK A01 T02270156  RH  064%=      5-min Rain = 0
KWA1 260200Z 09006KT 23/16 A3003 RMK A01 T02270157  RH  064%=      5-min Rain = 0
KWA1 260201Z 10006KT 23/16 A3003 RMK A01 T02270156  RH  064%=      5-min Rain = 0
KWA1 260202Z 09006KT 23/16 A3003 RMK A01 T02270157  RH  065%=      5-min Rain = 0
KWA1 260203Z 09005KT 23/16 A3003 RMK A01 T02260157  RH  065%=      5-min Rain = 0
KWA1 260204Z 09006KT 23/16 A3003 RMK A01 T02260157  RH  065%=      5-min Rain = 0
KWA1 260205Z 09005KT 23/16 A3003 RMK A01 T02250157  RH  065%=      5-min Rain = 0
KWA1 260206Z 10005KT 22/16 A3004 RMK A01 T02240156  RH  065%=      5-min Rain = 0
KWA1 260207Z 10005KT 22/16 A3004 RMK A01 T02240155  RH  065%=      5-min Rain = 0
KWA1 260208Z 10005KT 22/16 A3004 RMK A01 T02240157  RH  066%=      5-min Rain = 0
KWA1 260209Z 11005KT 22/16 A3004 RMK A01 T02230158  RH  066%=      5-min Rain = 0
KWA1 260210Z 11005KT 22/16 A3004 RMK A01 T02220161  RH  068%=      5-min Rain = 0
KWA1 260211Z 11004KT 22/16 A3004 RMK A01 T02210161  RH  069%=      5-min Rain = 0
KWA1 260212Z 11005KT 22/16 A3004 RMK A01 T02190161  RH  069%=      5-min Rain = 0
KWA1 260213Z 11005KT 22/16 A3004 RMK A01 T02190162  RH  070%=      5-min Rain = 0
KWA1 260214Z 11004KT 22/16 A3004 RMK A01 T02180163  RH  071%=      5-min Rain = 0
KWA1 260215Z 12004KT 22/16 A3004 RMK A01 T02170164  RH  072%=      5-min Rain = 0
KWA1 260216Z 12004KT 22/16 A3004 RMK A01 T02150164  RH  072%=      5-min Rain = 0
KWA1 260217Z 13004KT 22/16 A3004 RMK A01 T02150162  RH  072%=      5-min Rain = 0
KWA1 260218Z 14004KT 22/16 A3004 RMK A01 T02150163  RH  073%=      5-min Rain = 0
KWA1 260219Z 14004KT 21/16 A3005 RMK A01 T02140164  RH  073%=      5-min Rain = 0
KWA1 260220Z 15004KT 21/17 A3005 RMK A01 T02140165  RH  074%=      5-min Rain = 0
KWA1 260221Z 14004KT 21/17 A3005 RMK A01 T02120168  RH  076%=      5-min Rain = 0
KWA1 260222Z 14004KT 21/17 A3005 RMK A01 T02110169  RH  077%=      5-min Rain = 0
KWA1 260223Z 13004KT 21/17 A3005 RMK A01 T02100170  RH  078%=      5-min Rain = 0
KWA1 260224Z 13004KT 21/17 A3005 RMK A01 T02090168  RH  077%=      5-min Rain = 0
KWA1 260225Z 13004KT 21/17 A3005 RMK A01 T02090169  RH  078%=      5-min Rain = 0
KWA1 260226Z 12004KT 21/17 A3005 RMK A01 T02090169  RH  078%=      5-min Rain = 0
KWA1 260227Z 13004KT 21/17 A3005 RMK A01 T02090169  RH  078%=      5-min Rain = 0
KWA1 260228Z 13004KT 21/17 A3005 RMK A01 T02090170  RH  078%=      5-min Rain = 0
KWA1 260229Z 13004KT 21/17 A3005 RMK A01 T02090169  RH  078%=      5-min Rain = 0
KWA1 260230Z 13004KT 21/17 A3005 RMK A01 T02090167  RH  077%=      5-min Rain = 0
KWA1 260231Z 12005KT 21/17 A3005 RMK A01 T02100167  RH  076%=      5-min Rain = 0
KWA1 260232Z 11005KT 21/17 A3005 RMK A01 T02110167  RH  076%=      5-min Rain = 0
KWA1 260233Z 11005KT 21/17 A3005 RMK A01 T02120167  RH  075%=      5-min Rain = 0
KWA1 260234Z 11005KT 21/17 A3005 RMK A01 T02130167  RH  075%=      5-min Rain = 0
KWA1 260235Z 11005KT 21/17 A3005 RMK A01 T02130166  RH  075%=      5-min Rain = 0
KWA1 260236Z 11005KT 21/16 A3005 RMK A01 T02130164  RH  073%=      5-min Rain = 0
KWA1 260237Z 10005KT 21/16 A3005 RMK A01 T02140163  RH  073%=      5-min Rain = 0
KWA1 260238Z 11005KT 21/16 A3005 RMK A01 T02140161  RH  071%=      5-min Rain = 0
KWA1 260239Z 11005KT 22/16 A3006 RMK A01 T02150159  RH  070%=      5-min Rain = 0
KWA1 260240Z 10005KT 22/16 A3006 RMK A01 T02160157  RH  069%=      5-min Rain = 0
KWA1 260241Z 11005KT 22/16 A3006 RMK A01 T02170156  RH  068%=      5-min Rain = 0
KWA1 260242Z 10005KT 22/16 A3006 RMK A01 T02180156  RH  068%=      5-min Rain = 0
KWA1 260243Z 10005KT 22/16 A3006 RMK A01 T02190156  RH  068%=      5-min Rain = 0
KWA1 260244Z 10005KT 22/16 A3006 RMK A01 T02190156  RH  067%=      5-min Rain = 0
KWA1 260245Z 10006KT 22/15 A3006 RMK A01 T02190153  RH  066%=      5-min Rain = 0
KWA1 260246Z 09006KT 22/15 A3006 RMK A01 T02200152  RH  065%=      5-min Rain = 0
KWA1 260247Z 10006KT 22/16 A3006 RMK A01 T02200155  RH  067%=      5-min Rain = 0
KWA1 260248Z 09006KT 22/16 A3006 RMK A01 T02190156  RH  067%=      5-min Rain = 0
KWA1 260249Z 09007KT 22/16 A3006 RMK A01 T02170156  RH  068%=      5-min Rain = 0
KWA1 260250Z 09006KT 22/16 A3006 RMK A01 T02160158  RH  069%=      5-min Rain = 0
KWA1 260251Z 09006KT 22/16 A3006 RMK A01 T02150159  RH  070%=      5-min Rain = 0
KWA1 260252Z 10006KT 21/16 A3006 RMK A01 T02130160  RH  072%=      5-min Rain = 0
KWA1 260253Z 10006KT 21/16 A3006 RMK A01 T02110159  RH  072%=      5-min Rain = 0
KWA1 260254Z 10006KT 21/16 A3006 RMK A01 T02100158  RH  072%=      5-min Rain = 0
KWA1 260255Z 10006KT 21/16 A3006 RMK A01 T02100155  RH  071%=      5-min Rain = 0
KWA1 260256Z 10006KT 21/15 A3006 RMK A01 T02110153  RH  069%=      5-min Rain = 0
KWA1 260257Z 10006KT 21/15 A3006 RMK A01 T02130152  RH  068%=      5-min Rain = 0
KWA1 260258Z 10005KT 21/15 A3006 RMK A01 T02140152  RH  067%=      5-min Rain = 0
KWA1 260259Z 10005KT 22/15 A3007 RMK A01 T02150152  RH  068%=      5-min Rain = 0
KWA1 260300Z 11005KT 22/15 A3007 RMK A01 T02150152  RH  067%=      5-min Rain = 0
KWA1 260301Z 11005KT 22/15 A3007 RMK A01 T02150154  RH  068%=      5-min Rain = 0
KWA1 260302Z 10005KT 21/16 A3007 RMK A01 T02130155  RH  069%=      5-min Rain = 0
KWA1 260303Z 10005KT 21/16 A3007 RMK A01 T02120160  RH  072%=      5-min Rain = 0
KWA1 260304Z 10006KT 21/16 A3007 RMK A01 T02090163  RH  075%=      5-min Rain = 0
KWA1 260305Z 10006KT 21/16 A3007 RMK A01 T02050163  RH  077%=      5-min Rain = 0
KWA1 260306Z 10006KT 20/16 A3007 RMK A01 T02030163  RH  078%=      5-min Rain = 0
KWA1 260307Z 09006KT 20/16 A3007 RMK A01 T02010164  RH  079%=      5-min Rain = 0
KWA1 260308Z 09006KT 20/16 A3007 RMK A01 T02000164  RH  080%=      5-min Rain = 0
KWA1 260309Z 09007KT 20/16 A3007 RMK A01 T01990164  RH  080%=      5-min Rain = 0
KWA1 260310Z 09006KT 20/16 A3007 RMK A01 T01980163  RH  080%=      5-min Rain = 0
KWA1 260311Z 09007KT 20/16 A3007 RMK A01 T01970162  RH  080%=      5-min Rain = 0
KWA1 260312Z 09007KT 20/16 A3007 RMK A01 T01970159  RH  079%=      5-min Rain = 0
KWA1 260313Z 09006KT 20/16 A3007 RMK A01 T01980160  RH  078%=      5-min Rain = 0
KWA1 260314Z 09006KT 20/16 A3007 RMK A01 T01980161  RH  079%=      5-min Rain = 0
KWA1 260315Z 09007KT 20/16 A3007 RMK A01 T01980161  RH  079%=      5-min Rain = 0
KWA1 260316Z 09007KT 20/16 A3007 RMK A01 T01980159  RH  078%=      5-min Rain = 0
KWA1 260317Z 09007KT 20/16 A3007 RMK A01 T01980157  RH  077%=      5-min Rain = 0
KWA1 260318Z 09007KT 20/16 A3007 RMK A01 T01980157  RH  077%=      5-min Rain = 0
KWA1 260319Z 08007KT 20/16 A3007 RMK A01 T01980156  RH  077%=      5-min Rain = 0
KWA1 260320Z 09007KT 20/16 A3008 RMK A01 T01980157  RH  077%=      5-min Rain = 0
KWA1 260321Z 08007KT 20/16 A3008 RMK A01 T01980158  RH  077%=      5-min Rain = 0
KWA1 260322Z 08007KT 20/16 A3008 RMK A01 T01980158  RH  078%=      5-min Rain = 0
KWA1 260323Z 08007KT 20/16 A3008 RMK A01 T01980159  RH  078%=      5-min Rain = 0
KWA1 260324Z 08007KT 20/16 A3008 RMK A01 T01970158  RH  079%=      5-min Rain = 0
KWA1 260325Z 08007KT 20/16 A3008 RMK A01 T01960158  RH  078%=      5-min Rain = 0
KWA1 260326Z 08007KT 20/16 A3008 RMK A01 T01970158  RH  078%=      5-min Rain = 0
KWA1 260327Z 08007KT 20/16 A3008 RMK A01 T01960157  RH  078%=      5-min Rain = 0
KWA1 260328Z 08007KT 20/16 A3008 RMK A01 T01960157  RH  078%=      5-min Rain = 0
KWA1 260329Z 08007KT 20/16 A3008 RMK A01 T01960157  RH  078%=      5-min Rain = 0
KWA1 260330Z 08007KT 20/16 A3008 RMK A01 T01960157  RH  079%=      5-min Rain = 0
KWA1 260331Z 08007KT 20/16 A3008 RMK A01 T01950158  RH  079%=      5-min Rain = 0
KWA1 260332Z 08007KT 19/16 A3008 RMK A01 T01940157  RH  079%=      5-min Rain = 0
KWA1 260333Z 08007KT 19/16 A3008 RMK A01 T01930158  RH  080%=      5-min Rain = 0
KWA1 260334Z 08007KT 19/16 A3008 RMK A01 T01930158  RH  080%=      5-min Rain = 0
KWA1 260335Z 08007KT 19/16 A3008 RMK A01 T01930157  RH  080%=      5-min Rain = 0
KWA1 260336Z 09007KT 19/16 A3008 RMK A01 T01920157  RH  080%=      5-min Rain = 0
KWA1 260337Z 08007KT 19/16 A3008 RMK A01 T01920157  RH  080%=      5-min Rain = 0
KWA1 260338Z 09007KT 19/16 A3008 RMK A01 T01920156  RH  080%=      5-min Rain = 0
KWA1 260339Z 09006KT 19/16 A3008 RMK A01 T01920156  RH  080%=      5-min Rain = 0
KWA1 260340Z 09006KT 19/16 A3008 RMK A01 T01920156  RH  080%=      5-min Rain = 0
KWA1 260341Z 09006KT 19/16 A3008 RMK A01 T01910156  RH  080%=      5-min Rain = 0
KWA1 260342Z 09006KT 19/16 A3008 RMK A01 T01910157  RH  081%=      5-min Rain = 0
KWA1 260343Z 10006KT 19/16 A3008 RMK A01 T01910156  RH  080%=      5-min Rain = 0
KWA1 260344Z 10006KT 19/15 A3009 RMK A01 T01910153  RH  078%=      5-min Rain = 0
KWA1 260345Z 10005KT 19/15 A3009 RMK A01 T01930151  RH  077%=      5-min Rain = 0
KWA1 260346Z 10005KT 19/15 A3009 RMK A01 T01940150  RH  076%=      5-min Rain = 0
KWA1 260347Z 10005KT 20/15 A3009 RMK A01 T01950150  RH  075%=      5-min Rain = 0
KWA1 260348Z 11005KT 20/15 A3009 RMK A01 T01950150  RH  075%=      5-min Rain = 0
KWA1 260349Z 11004KT 20/15 A3009 RMK A01 T01950149  RH  075%=      5-min Rain = 0
KWA1 260350Z 11004KT 20/15 A3009 RMK A01 T01950148  RH  074%=      5-min Rain = 0
KWA1 260351Z 11004KT 20/15 A3009 RMK A01 T01960148  RH  074%=      5-min Rain = 0
KWA1 260352Z 11004KT 20/15 A3009 RMK A01 T01950150  RH  075%=      5-min Rain = 0
KWA1 260353Z 12004KT 20/15 A3009 RMK A01 T01950152  RH  076%=      5-min Rain = 0
KWA1 260354Z 12004KT 19/15 A3009 RMK A01 T01940154  RH  077%=      5-min Rain = 0
KWA1 260355Z 12004KT 19/16 A3009 RMK A01 T01920155  RH  079%=      5-min Rain = 0
KWA1 260356Z 12005KT 19/16 A3009 RMK A01 T01910155  RH  080%=      5-min Rain = 0
KWA1 260357Z 12005KT 19/16 A3009 RMK A01 T01900155  RH  080%=      5-min Rain = 0
KWA1 260358Z 12004KT 19/16 A3009 RMK A01 T01890155  RH  081%=      5-min Rain = 0
KWA1 260359Z 12005KT 19/16 A3009 RMK A01 T01890155  RH  081%=      5-min Rain = 0
KWA1 260400Z 12005KT 19/16 A3009 RMK A01 T01890155  RH  081%=      5-min Rain = 0
KWA1 260401Z 12005KT 19/16 A3009 RMK A01 T01890156  RH  081%=      5-min Rain = 0
KWA1 260402Z 12005KT 19/16 A3009 RMK A01 T01880156  RH  081%=      5-min Rain = 0
KWA1 260403Z 12005KT 19/16 A301 RMK A01 T01880156  RH  082%=      5-min Rain = 0
KWA1 260404Z 12005KT 19/16 A301 RMK A01 T01870155  RH  081%=      5-min Rain = 0
KWA1 260405Z 12005KT 19/16 A301 RMK A01 T01870155  RH  081%=      5-min Rain = 0
KWA1 260406Z 12005KT 19/15 A301 RMK A01 T01880154  RH  081%=      5-min Rain = 0
KWA1 260407Z 12005KT 19/15 A301 RMK A01 T01870153  RH  081%=      5-min Rain = 0
KWA1 260408Z 12005KT 19/15 A301 RMK A01 T01870153  RH  080%=      5-min Rain = 0
KWA1 260409Z 12005KT 19/15 A301 RMK A01 T01870153  RH  080%=      5-min Rain = 0
KWA1 260410Z 12005KT 19/15 A301 RMK A01 T01870153  RH  080%=      5-min Rain = 0
KWA1 260411Z 12005KT 19/15 A301 RMK A01 T01870153  RH  081%=      5-min Rain = 0
KWA1 260412Z 12005KT 19/15 A301 RMK A01 T01870154  RH  081%=      5-min Rain = 0
KWA1 260413Z 12005KT 19/15 A301 RMK A01 T01860153  RH  081%=      5-min Rain = 0
KWA1 260414Z 12005KT 19/15 A301 RMK A01 T01860153  RH  081%=      5-min Rain = 0
KWA1 260415Z 12005KT 19/15 A301 RMK A01 T01860153  RH  081%=      5-min Rain = 0
KWA1 260416Z 12005KT 19/15 A301 RMK A01 T01850154  RH  082%=      5-min Rain = 0
KWA1 260417Z 13005KT 18/15 A301 RMK A01 T01840153  RH  082%=      5-min Rain = 0
KWA1 260418Z 13005KT 18/15 A301 RMK A01 T01840154  RH  083%=      5-min Rain = 0
KWA1 260419Z 13005KT 18/15 A301 RMK A01 T01830154  RH  083%=      5-min Rain = 0
KWA1 260420Z 13005KT 18/15 A301 RMK A01 T01820154  RH  083%=      5-min Rain = 0
KWA1 260421Z 12005KT 18/15 A301 RMK A01 T01820152  RH  083%=      5-min Rain = 0
KWA1 260422Z 12005KT 18/15 A301 RMK A01 T01830152  RH  082%=      5-min Rain = 0
KWA1 260423Z 12005KT 18/15 A301 RMK A01 T01820153  RH  083%=      5-min Rain = 0
KWA1 260424Z 12006KT 18/15 A301 RMK A01 T01820152  RH  083%=      5-min Rain = 0
KWA1 260425Z 12006KT 18/15 A301 RMK A01 T01820151  RH  082%=      5-min Rain = 0
KWA1 260426Z 12006KT 18/15 A301 RMK A01 T01820150  RH  082%=      5-min Rain = 0
KWA1 260427Z 11006KT 18/15 A301 RMK A01 T01830149  RH  081%=      5-min Rain = 0
KWA1 260428Z 11006KT 18/15 A301 RMK A01 T01830147  RH  079%=      5-min Rain = 0
KWA1 260429Z 11006KT 19/15 A301 RMK A01 T01850146  RH  078%=      5-min Rain = 0
KWA1 260430Z 11006KT 19/15 A301 RMK A01 T01850146  RH  078%=      5-min Rain = 0
KWA1 260431Z 11006KT 19/15 A301 RMK A01 T01860145  RH  077%=      5-min Rain = 0
KWA1 260432Z 11006KT 19/15 A301 RMK A01 T01860146  RH  077%=      5-min Rain = 0
KWA1 260433Z 12006KT 19/15 A301 RMK A01 T01860146  RH  078%=      5-min Rain = 0
KWA1 260434Z 12006KT 19/15 A301 RMK A01 T01860147  RH  078%=      5-min Rain = 0
KWA1 260435Z 12005KT 19/15 A301 RMK A01 T01850148  RH  079%=      5-min Rain = 0
KWA1 260436Z 13005KT 19/15 A301 RMK A01 T01850149  RH  080%=      5-min Rain = 0
KWA1 260437Z 13006KT 18/15 A301 RMK A01 T01830150  RH  081%=      5-min Rain = 0
KWA1 260438Z 13006KT 18/15 A301 RMK A01 T01820150  RH  082%=      5-min Rain = 0
KWA1 260439Z 13006KT 18/15 A301 RMK A01 T01810150  RH  082%=      5-min Rain = 0
KWA1 260440Z 14006KT 18/15 A301 RMK A01 T01800149  RH  082%=      5-min Rain = 0
KWA1 260441Z 13006KT 18/15 A301 RMK A01 T01800146  RH  081%=      5-min Rain = 0
KWA1 260442Z 13006KT 18/15 A301 RMK A01 T01800146  RH  080%=      5-min Rain = 0
KWA1 260443Z 13005KT 18/15 A301 RMK A01 T01810146  RH  080%=      5-min Rain = 0
KWA1 260444Z 13005KT 18/15 A3011 RMK A01 T01810146  RH  080%=      5-min Rain = 0
KWA1 260445Z 12005KT 18/15 A3011 RMK A01 T01810146  RH  080%=      5-min Rain = 0
KWA1 260446Z 12005KT 18/15 A3011 RMK A01 T01810147  RH  080%=      5-min Rain = 0
KWA1 260447Z 12005KT 18/15 A3011 RMK A01 T01810146  RH  080%=      5-min Rain = 0
KWA1 260448Z 12005KT 18/15 A3011 RMK A01 T01810145  RH  080%=      5-min Rain = 0
KWA1 260449Z 12005KT 18/14 A3011 RMK A01 T01810143  RH  079%=      5-min Rain = 0
KWA1 260450Z 12005KT 18/14 A3011 RMK A01 T01820142  RH  078%=      5-min Rain = 0
KWA1 260451Z 12005KT 18/14 A3011 RMK A01 T01830142  RH  077%=      5-min Rain = 0
KWA1 260452Z 12005KT 18/14 A3011 RMK A01 T01840141  RH  076%=      5-min Rain = 0
KWA1 260453Z 11005KT 18/14 A3011 RMK A01 T01840141  RH  076%=      5-min Rain = 0
KWA1 260454Z 11005KT 18/14 A3011 RMK A01 T01840141  RH  076%=      5-min Rain = 0
KWA1 260455Z 11005KT 18/14 A3011 RMK A01 T01840141  RH  076%=      5-min Rain = 0
KWA1 260456Z 12005KT 18/14 A3011 RMK A01 T01840140  RH  076%=      5-min Rain = 0
KWA1 260457Z 12005KT 19/14 A3011 RMK A01 T01850141  RH  076%=      5-min Rain = 0
KWA1 260458Z 12005KT 19/14 A3011 RMK A01 T01850142  RH  076%=      5-min Rain = 0
KWA1 260459Z 11005KT 18/14 A3011 RMK A01 T01840143  RH  077%=      5-min Rain = 0

Page generated in 0.1767 seconds.